2ちゃんねる ★スマホ版★ ■掲示板に戻る■ 全部 1- 最新50  

■ このスレッドは過去ログ倉庫に格納されています

名古屋アワレwwwwwwwww

1 :名無しSUN:05/02/01 07:04:23 ID:o8c9LXUM
今年も積雪なしですたwwwwww

2 :名無しSUN:05/02/01 07:05:53 ID:nyVEF++5
2get!

3 :名無しSUN:05/02/01 07:09:47 ID:o8c9LXUM
味噌ヲタ終了wwwwwwwww

NHKニュースで、積雪ゼロ予想wwwwwww
大阪は5cmwwwww

4 :名無しSUN:05/02/01 07:33:23 ID:aSuDXaPy
雪合戦ができんw


5 :名無しSUN:05/02/01 08:23:16 ID:0rCDfihx
http://www.geocities.jp/momo_harumi/yatokame2004/
天下取りかwww

6 :名無しSUN:05/02/01 08:56:36 ID:N7x5iRc9
関東スレより↓
140 :名無しSUN:05/02/01 08:27:52 ID:o+4pAYDk
  おい関東ども
  いよいよ明日名古屋で大雪祭りだ
  名駅や栄での大雪の様子が
  全国に映される
  名古屋の底力を存分に見せ付けてやるよ
  ホワイトタウン名古屋を見逃すなよw

関西スレより↓
718 :名古屋人代表:05/02/01 08:02:39 ID:Y7PVnrUk
  うかれんなよ糞関西人
  今夜は名古屋様が大雪なんだし、惨めになるよ(笑)

  名古屋万歳!


こういうの見てると、雪云々よりも人間的にアワレ

7 :西区:05/02/01 09:20:00 ID:BW30cCv2
このスレタイくつがえす結果にしてやるぜ!

8 :名無しSUN:05/02/01 17:40:30 ID:YUV3qdkF
名古屋でもし5cm以上積雪したら、このスレの全員に100万やるよww

9 :名無しSUN:05/02/01 17:43:49 ID:YUV3qdkF
静岡・高知で、積雪濃厚wwww

しかし、名古屋は冬晴れwwww
宮崎を除けば、全国で積雪なのにwwwww
マジアワレwwwwwwwww。

10 :名無しSUN:05/02/01 17:44:35 ID:TbhBc97j
>>1
残念でしたw

11 :bull fight(前橋民):05/02/01 17:45:26 ID:KxbI6pMp
>>8
さすがにその賭けは危険だと思う…
冬型のときの降雪はスカかドカ雪のどちらかだから。

12 :名無しSUN:05/02/01 17:46:38 ID:eFQqSQb4
>>8
え?まじ?

記念かきこw

100万円が楽しみだ。

13 :わかやま北:05/02/01 17:46:39 ID:l8bTr7kE
100万円?
一応書き込んどくかな・・・近頃何が起こるか分らんし


14 :名無しSUN:05/02/01 17:48:38 ID:YUV3qdkF
木曽川で急速に衰退する雪雲wwwww

愛知県には到達できずwwww
20時には俺が勝者だと確定するだろうwwwww


15 :名無しSUN:05/02/01 17:48:42 ID:TnmlJt7k
>>8
俺にも頂戴!
























でもまあ、あれだな。
>>8は100万円とは言ってないからね。

16 :名無しSUN:05/02/01 17:48:47 ID:/dNszBng
うんこ

17 :名無しSUN:05/02/01 17:50:20 ID:xsTub6NB
雪やるよ。頼むから持っててくれ。

18 :名無しSUN:05/02/01 17:50:23 ID:HzJkUH5Q
思わぬ素晴らしい急展開にかたまってる

19 :名無しSUN:05/02/01 17:51:07 ID:tLIvFQW8
なんせ静岡市で降ってるもんなあ…

20 :bull fight(前橋民):05/02/01 17:54:54 ID:KxbI6pMp
もし、名古屋にドカ雪が降るとすれば、
明日の明け方には結果が出ているだろう。

21 :名無しSUN:05/02/01 17:58:49 ID:/SsRtVlV
                   _____
                  | >>8王国|
      ザワザワ・・・      | ̄ ̄ ̄ ̄ ̄
                   ∧
ザワザワ・・・・          <⌒> ザワザワ・・・・
                 /⌒\
       _________]皿皿[-∧-∧、
    /三三三三三三∧_/\_|,,|「|,,,|「|ミ^!、
  __| ̄田 ̄田 / ̄ ̄Π . ∩  |'|「|'''|「|||:ll;|
 /__,|==/\=ハ, ̄ ̄|「| ̄ ̄ ̄ ̄|「| ̄ ̄|
/_| ロ ロ 「 ̄ ̄ ̄ | | 田 |「|  田 田 |「|[[[[|
|ll.|ロ ロ,/| l⌒l.l⌒l.| |    |「|        |「|ミミミミミミ

λ <えっ?100万?  λ<さいたまよりおいしいかも 
λ <名古屋の天気は?  λ<ネタでしょ?ネタ?

22 :名無しSUN:05/02/01 19:00:47 ID:aSuDXaPy
今年の雪雲にアツいものを感じる。
きっと10センチは降らせてくれるさ。


23 :名無しSUN:05/02/01 19:03:15 ID:qQC+AZSm
>>8
おれも書いておこ、わくわく

24 :φφφφφφφφφφφφφφφφφφφφφφφφ:05/02/01 19:26:22 ID:Z5XmlxAU
>>8

25 :名無しSUN:05/02/01 19:30:29 ID:SgGifcuX
>>8はどうせトリップつけてないからいざ降ったら
バッくれるに100万ウォン

26 :omikuji!:05/02/01 19:32:58 ID:0rCDfihx
>>8


27 :名無しSUN:05/02/01 19:37:53 ID:QnN3A/a/
>>8
逃げるなよ。

28 :ガッチンポー ◆KvI5ZENb/M :05/02/01 19:42:46 ID:K8MivtQs
100万円貰った

29 :名無しSUN:05/02/01 19:46:06 ID:d9kpEFwS
>8
ありがとう

30 :YahooBB220001060244.bbtec.net:05/02/01 19:48:05 ID:n2kqHQ+H
たのんだよ

31 :名無しSUN:05/02/01 19:48:25 ID:5ojmiZVc
100万ギルもらい

32 :名無しSUN:05/02/01 19:48:27 ID:1svF7z+Q
>>8はプロ市民

33 :名無しSUN:05/02/01 19:50:26 ID:m77sHYSR
降らないならうれしいけど100万は美味しいな
前に似たようなこと書いて払わされた奴いるから楽しみ(笑)

34 :名無しSUN:05/02/01 19:55:54 ID:3iM7wu+w
そういえばそんな奴いたな。かなり祭りになったっけ。

35 :名無しSUN:05/02/01 19:56:06 ID:HBZdYVV/
確かに>8は円とは書いてないな
雪100万cmかも知れん

36 :名無しSUN:05/02/01 19:57:32 ID:vqPS85Nt
>>8
通りすがりですが100万円は頂きます

37 :西区:05/02/01 19:58:42 ID:BW30cCv2
100だせよ

38 :名無しSUN:05/02/01 19:58:44 ID:eFQqSQb4
名古屋で5センチ積もったら、「100万」だったら何でもいいからちょうだい。
100万円100万ドル100万ユーロ100万元100万ポンド
100万クローネ100万クローナ100万フラン・・・

何でもいいよ。

39 :名無しSUN:05/02/01 19:59:41 ID:HBZdYVV/
100万nmの雪キボン

40 :名無しSUN:05/02/01 20:01:22 ID:c3hb+dOZ
糞スレあげんな

41 :名無しSUN:05/02/01 20:04:56 ID:28Va4w3S
記念下記子
夕方に雪一瞬降ってたから夜は降るかも。

42 :名無しSUN:05/02/01 20:09:11 ID:WQvy4Vai
>>8
俺にもくれよな

43 :名無しSUN:05/02/01 20:17:44 ID:IZLbO9Yg
記念カキコ!

44 :名無しSUN:05/02/01 20:31:01 ID:sqt4JmGW
見よ!これが愛知県だ!


       犬
   つボイ山城猿
  ココ壱豊年祭園
 ウール鯉のぼり高蔵寺   和紙    夏
植木イチロー書の街瀬戸物朝香たまご村焼    茶臼山ミニ
裸祭名駅栄金鯱ドーム森林猿投山元気村伊勢神みどり湖村
天王祭大須TV塔コアラ万博グリーン勘八峡香嵐渓花祭りダ
 輪中青波神宮競技場大学挙母村鞍ヶ池三河湖五平餅ム
  金トリトン名港桶狭間洲原トヨタ松平氏高原県民の森
   魚  トドメキ競馬デンソースタジアム牧場鳳来寺山
     玉葱八神あんまき八橋花火くらがり仏法僧湯谷
    マリンカキツバタ味噌家康なめくじ本宮山設楽原
    ごんぎつねデンマーク電照菊松並木砥鹿桜淵
     常滑 瓦人形矢作川温泉みかん稲荷穂の国
   空 港焼 衣浦港抹茶子供国ラグーナゴミゼロ
     ビー  鰻上野介      松平健路
     チ内              ゼ竹輪電
      海師             リーのん
         崎  島      三河港ほい
               メ 光浦崋山
              ロン花園
             伊良湖


45 :名無しSUN:05/02/01 21:03:54 ID:Z8kcHFEP
哀恥県?

46 :ガッチンポー ◆KvI5ZENb/M :05/02/01 21:22:01 ID:K8MivtQs
吸収かと思った

47 :名無しSUN:05/02/01 21:58:52 ID:gY3R9eXZ
100万トルコリラ?

48 :名無しSUN:05/02/01 22:01:25 ID:8Um98S7f
名古屋あられ!って?

49 :名無しSUN:05/02/01 22:23:30 ID:qadb6OUT
この板をお国自慢板と勘違いしてるバカは帰れ

50 :名無しSUN:05/02/02 00:06:56 ID:26X7w8hm
>>48
鳥山明が居るからだよきっと

51 :名無しSUN:05/02/02 00:08:13 ID:Bndb81Hu
俺が99万かけて降らす

52 :bull fight(前橋民):05/02/02 00:13:23 ID:C6lNmuud
どうせ100万ウォンだろ。
>>8にはそのような大金は持ってないよ。
スレタイの主題が変わって「>>8アワレwwwwwwwww 」
にならないよう祈るばかりです。

53 :名無しSUN:05/02/02 00:17:24 ID:NaiuSFrD
>>8は死亡確定だな。

54 :名無しSUN:05/02/02 00:20:22 ID:FiI54akO
100万個のウイルス・・・
ガクブル

55 : ◆NEVADAjl9c :05/02/02 00:37:16 ID:8mgNawVF
>>54
しかも鳥インフルエンザ

56 :名無しSUN:05/02/02 00:38:51 ID:X0xehnxA
>>44
肝心なものを忘れているぞw

       犬
   つボイ山城猿
  ココ壱豊年祭園
 ウール鯉のぼり高蔵寺   和紙    夏
植木イチロー書の街瀬戸物朝香たまご村焼    茶臼山ミニ
裸祭名駅栄金鯱ドーム森林猿投山元気村伊勢神みどり湖村
天王祭大須TV塔コアラ万博グリーン勘八峡香嵐渓花祭りダ
 輪中青波神宮競技場大学挙母村鞍ヶ池三河湖五平餅ム
  金トリトン名港桶狭間洲原トヨタ松平氏高原県民の森
   魚  トドメキ競馬デンソースタジアム牧場鳳来寺山
     玉葱八神あんまき八橋花火くらがり仏法僧湯谷
    マリンカキツバタ味噌家康なめくじ本宮山設楽原
    ごんぎつねデンマーク電照菊松並木砥鹿桜淵
     常滑 瓦人形矢作川温泉みかん稲荷穂の国
   空 港焼 衣浦港抹茶子供国ラグーナゴミゼロ
   → 南セ  鰻上野介      松平健路
   → ント              ゼ竹輪電
   →  レア             リーのん
   →     市  島      三河港ほい
               メ 光浦崋山
              ロン花園
             伊良湖

57 : ◆NEVADAjl9c :05/02/02 00:56:08 ID:8mgNawVF
>>56
てっきりセントレア横風で離着陸できず
ってかいてあるのかと思った

58 :名無しSUN:05/02/02 03:57:11 ID:bYUTaCUr
>>8
あと2センチなわけだが、大丈夫か?

59 :名無しSUN:05/02/02 04:14:05 ID:bYUTaCUr
名古屋4p(午前4時)

リーチです。

60 :名無しSUN:05/02/02 05:11:39 ID:bYUTaCUr
キタ━━━━━━(゚∀゚)━━━━━━ !!
名古屋7cm(午前5時)
祝100万
キタ━━━━━━(゚∀゚)━━━━━━ !!
キタ━━━━━━(゚∀゚)━━━━━━ !!
キタ━━━━━━(゚∀゚)━━━━━━ !!
キタ━━━━━━(゚∀゚)━━━━━━ !!

払えよ>>8

61 :弥富町:05/02/02 05:40:23 ID:EhA3DKn9
記念カキコ

62 :名無しSUN:05/02/02 05:47:21 ID:sq6M9O3h
野球板でも見たが、縁起スレだな。

63 :名無しSUN:05/02/02 05:57:11 ID:XNWGT+wG
よっしゃ100万げと、だれか>>8のIP抜いてくれや

64 :名無しSUN:05/02/02 06:41:41 ID:UuAGdZ3S
>>1
>>8
晒しage


65 :名無しSUN:05/02/02 06:46:10 ID:PM4mX928
>>8
ありがとよっ!

66 :一宮市中心部:05/02/02 06:49:20 ID:9Zuv8qHR
一宮17センチキタ━━━━━━(゚∀゚)━━━━━━ !!
名古屋も7センチキタ━━━━━━(゚∀゚)━━━━━━ カ!!
ざまみろバ━━━━━━(゚∀゚)━━━━━━ !!
ワショーイワショーイオマツリワショ━━━━━━(゚∀゚)━━━━━━イ !!


67 :一宮市中心部:05/02/02 06:52:49 ID:9Zuv8qHR
ざまみろ関東関西人


68 :名無しSUN:05/02/02 07:02:30 ID:K22XcyzK
>>1>>8アワレwwwwwwwww

69 :名無しSUN:05/02/02 07:05:28 ID:hYUoamz0
知多市真っ白キタ━━━━━━(゚∀゚)━━━━━━ !!

この冬最後か?

70 :名無しSUN:05/02/02 07:22:55 ID:iMCqnNq/
電車は遅れるわ高速道路は通れないわで今日会社遅刻する人続出しそう。

71 :名無しSUN:05/02/02 07:56:04 ID:7wu/593r
記念パピポ

72 :名無しSUN:05/02/02 08:09:16 ID:9Zo4xf/a
よっしゃ、100万円げと。

73 :名無しSUN:05/02/02 08:25:00 ID:+KHXARQr
誰か>>8のIP抜いてくれ

74 :名無しSUN:05/02/02 08:38:27 ID:MTL4VPLd
>>70
その遅れを見込んで遅く出勤します

75 :名無しSUN:05/02/02 09:11:59 ID:KruH0HMp
藻前らうれしそうだな!おめでとう。
>>8
age


76 :名無しSUN :05/02/02 09:26:53 ID:bNr3nrdu
アワレwwwwwwwな

>>1 >>8

がいるのでage

77 :名無しSUN:05/02/02 09:28:06 ID:bLcrRqrQ
いつもより30分遅れで出勤
記念パペポ

78 :名無しSUN:05/02/02 09:31:16 ID:JS3x1Lms
>>8
偽一万円札100万枚ならタイーホ( ゚∀゚)アハハ八八ノヽノヽノ \ / \

79 :名無しSUN:05/02/02 09:36:15 ID:OzKWZu0n
100万円貰えると聞いて飛んできました。

80 :名無しSUN:05/02/02 10:14:40 ID:dV662D5e
>8
逃げるなよ

81 :名無しSUN:05/02/02 10:23:49 ID:xpGLwHg1
俺も100万ゲット記念カキコしますだ。


82 :名無しSUN:05/02/02 10:59:03 ID:piBPpGsY
うはwwwwwwwwwwwwwwwwwwwww100万げとwwwwwwwwwwwwwwwwwwww

83 :名無しSUN:05/02/02 11:02:34 ID:sTcbyXde
ついに82レス,>>1>>8を除いても、8000万ちゃんと用意しとけよ

84 :名無しSUN:05/02/02 12:13:55 ID:2xf7l1q2
>>47
2年前に両替したときは
1万円→1億5千万トルコリラだった希ガス

85 :名無しSUN:05/02/02 12:51:37 ID:L8M469Z+
>8 100万円頂きに参りました。

86 :名無しSUN:05/02/02 13:17:18 ID:u/ckIGCT
age

87 :名無しSUN:05/02/02 13:23:24 ID:YQOge5Mv
糞スレsage

88 :名無しSUN:05/02/02 14:11:45 ID:DZnMmM9B
Uhhhhhhnn 書き逃げは感心しないなぁ >>8さんよぉww

89 :名無しSUN:05/02/02 16:23:54 ID:Q53iUzyf
VIPに貼るか!?
ハイエナワラワラww

90 :名無しSUN:05/02/02 17:47:52 ID:MKzgKkGZ
>>8
wwwwwっうぇw

91 :名無しSUN:05/02/02 17:55:59 ID:dKGGCNBS
>>8
100万とは言ってるが、100万円とはいってないのね。






雪の代わりに100万のフケだったりしてorz

92 :名無しSUN:05/02/02 17:57:21 ID:2l1vtWG1
>>8
期待カキコ

93 :47:05/02/02 18:01:56 ID:nXpNqwYj
>>84
話のわかる人がいてよかった。

94 :名無しSUN:05/02/02 19:11:31 ID:jQ11NW3x
100万!

95 :bull fight(前橋民):05/02/02 20:12:25 ID:JBaMw0yR
>>8
ドカ雪だったね。

96 :多分、コレが大元かと:05/02/02 22:02:07 ID:tFzFAg0d
ハメオタアワレWWWWWWWWW (○はめおたあわれ)


1 名前はアレだが立派な横浜の縁起スレ。
横浜が絶望的な状況でこのスレが立つと高確率で奇跡が起きる。

例:5月の中日戦、佐々木が打たれたるもウッズが逆転サヨナラ2ラン
  6月の阪神戦、当時得点圏.000だった鈴木尚がサヨナラ3ラン
  7月の巨人戦、8点差を逆転されるも起死回生の村田のソロand金城のサヨナラ2ラン

ちなみにスレ立つ度にタイトルが微妙に変わる。


2 この縁起スレの>>1は実況スレで偽実況をしていたことから、
おそらくアンチが立てたものと思われる。
また、「○○アワレWWWWWWWWW」などの他チーム版が立てられることもあるが
なぜか奇跡発動はほとんど見られない。


97 :名無しSUN:05/02/04 19:15:19 ID:miu4DIwf
>>8さん、100万はまだですか?

98 :未来少年:05/02/08 17:07:40 ID:lammwQB5
あげ


99 :名無しSUN:05/02/08 17:54:51 ID:yVaaGLhk
1-98カチグミ(1,8ノゾク)

100 :名無しSUN:05/02/09 15:09:53 ID:rAB2Aswg
100

101 :名無しSUN:05/02/09 15:43:54 ID:/hN1StKH
それ!100万!

102 :名無しSUN:05/02/10 01:29:23 ID:Z8X6HzEw
実に、名古屋人らしいレスばかりだね

103 :名無しSUN:05/02/10 18:43:09 ID:rbV7d/PC
よくわからんが、とりあえず100万な。

104 :名無しSUN:05/02/12 19:49:30 ID:MXLxeC+B
>>8
すいません、まだ100万届かないんですけど・・・

105 :名無しSUN:05/02/13 07:18:24 ID:i20A0ha7
逃げかよ。100万よこせ。
誰か抜いてクレーw

106 :名無しSUN:05/02/14 01:23:47 ID:npwNrfHp
>>8は現在1億円稼ぐために昼夜問わず働いていることでしょう

それか氏んでるか。

107 :名無しSUN:05/02/14 14:22:27 ID:??? ?#
>>96
去年の横浜はそれだけ勝利に飢えていたってことだよ

108 :名無しSUN:05/02/16 00:10:06 ID:iQFBOSUq
>>8
頑張って稼いでるかい?wwww

109 :名無しSUN:05/02/16 17:54:24 ID:9/YRhL9T
名古屋アワレwwが>>8アワレになってるww

110 :名無しSUN:05/02/16 19:59:49 ID:dhcNXFwf ?
ひゃくまんまだー(`・ω・´)

111 :名無しSUN:05/02/18 03:39:48 ID:ChvTnXLx
おい>>8

逃げるなよ?

112 :名無しSUN:05/02/18 09:06:40 ID:qMUdFEEj
本当に要求してるおまいらがアワレwwww









すんません、ウチ100万あると助かります・・・・
>>8さんマダー?チンチン(AAry

113 :名無しSUN:05/02/19 16:39:26 ID:3wx+BS8X
age


114 :名無しSUN:05/02/19 21:58:37 ID:/T/8zJ7l
書き逃げ(・A・)イクナイ!!>>8

115 :名無しSUN:05/02/20 00:49:17 ID:xbVFQRed
アワレってなんですか?

116 :名無しSUN:05/02/20 02:16:54 ID:OxBYqllj ?
冗談かと思ったが…ダブルで書いてるって事はマジレスだな…
モマエのようなヤツの事をアワレと呼ぶ
ちゃねらーもアワレかなorz

117 :名無しSUN:05/02/20 06:03:44 ID:URBm4xRz
ZZZ......
          +   へ    ,,,..-'"へ ⌒ヽー-、..,,,...-イ''⌒ヽ
             /   ゝ-─‐-/'  ヽi!  ヽ、     i,  ,ノ
      +   /"             i!  .... ゙'';;..   Y"
        ,/' ''''''   ''''''       〈  :::::.  '';;...  'i- 、,,
       + i'(-==),   、(==-)、    'i,  ::::::::   ::::  'i!   ゙"ヽ、
          i!   ,,ノ(、_, )ヽ、,,         'i  :::::::::  ''':;;;  ヽ、  ゙)
 ワカッタニャー 'i,::::: `-=ニ=- '       ,/ヽ ''''        'i,-‐'"
       /⌒ヽ、 `ニニ ´   :::,,-‐    ゝ   .............    ヽ、
       (    ヽ、 u ,,.-‐''"       ,)  :::::::::      '\,
        ヽ、,,  ノ,.-‐''"      ノ-‐''"´( :::::::::::          )
          "~ (       ,. -'"     ヽ、    _,,... -‐─'''"
             ヽ、,,.. -‐

118 :名無しSUN:05/02/20 11:44:32 ID:xbVFQRed
誰も答えないってことは
誰もアワレを知らないの?

119 :名無しSUN:05/02/20 23:18:14 ID:xbVFQRed
>>1
だから、アワレって何?
早く答えろ。
それとも回答できないのか?

120 :以下、名無しにかわりましてVIPがお送りします:05/02/21 12:50:34 ID:9hhZR+Z5
⊂⊃                      ⊂⊃                    
        ⊂ \       /⊃                          
          \\/⌒ヽ//                                
   ⊂⊃  ((   \( ^ω^)    ))                                
            /|    ヘ       空も飛べるはず                           
          //( ヽノ \\                                      
        ⊂/   ノ>ノ    \⊃                                    
             レレ   スイスーイ   ⊂⊃                                
           彡                                         
\____________________/                          
                                                    
                 (⌒)                                 
                   ̄                           
                O                                 
               。                              
          /⌒ヽ                                
   ⊂二二二( ^ω^)二⊃                               
        |    /       ブーン
         ( ヽノ
         ノ>ノ          
     三  レレ           

121 :名無しSUN:05/02/27 20:38:14 ID:n9QUN2/F



122 :名無しSUN:05/02/28 15:16:03 ID:G501KDmZ
>>119
ワロタ

123 :名無しSUN:05/03/01 23:23:52 ID:9FIVjrO2
まだ誰も答えないようだな。

・哀れ
・会われ
・合われ
・逢われ
・憐れ
・遭われ
・遇われ
・あわれ

さあ、

124 :名無しSUN:05/03/03 17:39:53 ID:NHn2cCf6
 

125 :名無しSUN:05/03/03 18:42:26 ID:UEW2xKkZ
wwwwww南岸低気圧だなwwww

糞味噌ヲタどもwww
これで天下の東京様が糞味噌王国を上回るぜwwwww
万が一、名古屋で5cm以上積雪したら?
そんなもん関係ないだろwwwwwwwww

名古屋積雪ゼロwwwwアワレwwwwwwwww

126 : ◆NEVADAjl9c :05/03/03 19:51:10 ID:y5vIMzqq
ここで必死な>>8が再生されますた

127 :名無しSUN:05/03/03 22:07:42 ID:wJzRC1Ak
>>125

× 味噌ヲタ
○ 味噌っカス

128 :名無しSUN:05/03/04 08:36:55 ID:qEuLAB0P
>>125
( ´,_ゝ`)プッ バッカジャネーノカントウジン
 
もし今日の南低で東京(大手町)の積雪が名古屋の8cm未満に終わった場合は
下のスレにおまわり下さいw
ありえないとは思うが4cm以下なら大爆笑wwwwwwwww

関東哀れwwwwwww
http://science3.2ch.net/test/read.cgi/sky/1108785701/l50#tag60

129 :名無しSUN:05/03/04 12:35:18 ID:qEuLAB0P
あれだけ大雪って騒いだ 東 京 2cm っ て マ ジ ! ? ( ´,_ゝ`)プッ

130 :名無しSUN:05/03/04 23:25:41 ID:Tly2r6AI
今 回 、 名 古 屋 は 【 a 】 じ ゃ な く て 【 _ 】 だ っ て !? ア ワ レ W  ( ´,_ゝ`)プーッ

131 :横浜人:05/03/04 23:34:51 ID:V0DJBRQ1
今シーズンの負けを素直に認めよう。
しかし、横浜も随分都市化が進んだな。7年位前までは都心より5cm位は多く積もるの当たり前だったのに。

132 :名無しSUN:05/03/04 23:42:42 ID:+V2XWRhi
今日テレビみてたら何なのあの東京の雪、食後のフローズンかとおもたよw
東京人は溶けかかったシャーベットを雪と言っていたのかw
しかもたった2pで全国のトップニュースw まあ東京人は2月2日のスキー場のようなパウダースノーを味わうことなど一生無いんだろうな、可哀相に。

133 :名無しSUN:05/03/05 03:30:08 ID:zu18lVea
所詮味噌ミソmiso

134 :名無しSUN:05/03/05 08:02:02 ID:ZL3Z9s7E
>130
>133
名古屋に負けたのがよっぽど悔しいらしいな m9(^д^)プギャ-
東京は名古屋なんかよりずっと都会ですから嫉妬しなくても
大丈夫だよ、バカントン人ちゃんw

135 :名無しSUN:05/03/05 08:42:43 ID:hpaDCgey
低脳東京人は現実を受け入れて素直に負けを認めろよw
往生際が悪いは見苦しいぞw
>>131をちょっとは見習えw

これだけ南低が多発して東京有利な状況が
何度も表れた当たり年にもかかわらず
べチャべチャのシャーベット(雪にしておいてやる)が僅かに積もっただけw

つまり半永久的に東京は名古屋に勝てないってことなんだよ!wwwwwwwww

136 :名無しSUN:05/03/05 09:01:27 ID:xUVxI7aN
1500で−10℃地上で−2℃以下で降る名古屋の雪は積もるのは早く
少ない降水量で短時間に勝負する。逆に言えば、豪快に降っているのを
長い間見るのが好きなヤシにとっては物足りないかもしれない。
雪質に勝ち負けはないと思うよ。

137 :名無しSUN:05/03/06 13:28:25 ID:TjXErMG7
3月の祭りに参加できない名古屋アワレだね。

138 :名無しSUN:05/03/06 14:25:29 ID:V5yJFirg
3月の名古屋の降雪積雪能力は、東京大阪福岡よりも劣り、
静岡宮崎と同じレベルにまで落ちる。これ定説。
南低は基本的に駄目ですし、冬型も京阪神が有利な北風が多く、
名古屋には雪雲が流れてこないですし、北西になっても3月ともなると
琵琶湖の水温が下がりきってる状況で、琵琶湖で雲が発達しないので。
データ的にも終雪の平年日がそれを物語ってるし、ここ20年間でも、
東京大阪福岡は3月の5センチ以上をクリアしているが、
名古屋だけはクリアしていない。というか、最近15年以上の間は
3月は積雪1センチさえも観測されていない。

139 :名無しSUN:05/03/06 15:18:54 ID:1wqu/0SG
>>138
すご〜く説得力のある解説どうもですw


140 :名無しSUN:05/03/06 20:40:26 ID:ittgvjJ6
ああ名古屋に積雪がじぇろじゃなくて惨めだねw
必死に煽りスレ建てたのにw

141 :名無しSUN:05/03/06 21:03:11 ID:ZO1CdoOA
3月の数時間で溶けるベチャク雪より、やはり12月の雪のほうが価値はあるんだが。名古屋は時にホワイトクリスマスを味わえる。84年、95年、00年。イブ前後なら一昨年の9pなど。東京大阪福岡でホワイトクリスマスは味わえるの?

142 :名無しSUN:05/03/06 21:36:21 ID:dBYwOVgy
そうそう。そうやって優越感保ってなきゃ、名古屋人らしくないよ。
名古屋は気象板の癌であり、悪役であるのだから。
これからももっとたくさん敵を作って嫌われ続けてね。

143 :名無しSUN:05/03/06 23:24:55 ID:krH0QWhU
負け犬が吠えてるみたい

144 :名無しSUN:05/03/06 23:25:24 ID:r9yyRJXp
本当名古屋って嫌われてんな。ロムってみたが嫌われるだけの理由が十分あるな。でも名古屋人は気付いてないだろう。まぁ、そこも嫌われる理由の一つだろうけど。痛いヤシばっかりで楽しめるがなWWW

145 :名無しSUN:05/03/06 23:36:15 ID:krH0QWhU
負け犬ワンワン!www

146 :名無しSUN:05/03/07 07:34:50 ID:OTTQoqys
優秀な名古屋に劣等性が嫉妬するのは仕方が無いことです。
負け犬の遠吠えは放置しておきましょうw

147 :名無しSUN:05/03/07 08:38:02 ID:prd8Ws7g
負け犬アワレwwwwwwww

148 :名無しSUN:05/03/07 15:03:38 ID:yncMohP1
そう言うのが痛いってのwww「負け犬」って何だよwwwwwwwww本当にワンワン言っちゃっててさ、馬鹿ジャネーノ?wwwwwwwwぁあ面白いwwwハライテーwwwwwまた釣りに来るよwww

149 :名無しSUN:05/03/07 16:03:14 ID:prd8Ws7g
>>148=負け犬

150 :名無しSUN:05/03/07 16:06:35 ID:dH5c0ce5
>>149=蛆虫

151 :名無しSUN:05/03/07 16:15:16 ID:prd8Ws7g
負け犬が必死の遠吠えw

152 :名無しSUN:05/03/07 16:18:43 ID:dH5c0ce5
>>151は発狂していますww

コソコソ書き込んでいる所を発見されて晒しage喰らって焦ってますwww

153 :名無しSUN:05/03/07 16:56:30 ID:prd8Ws7g
おっ!
東海スレで「プギャアwwwww 」
と発狂する荒らしここでも発見!

池沼負け犬ID:dH5c0ce5

154 :名無しSUN:05/03/07 17:33:44 ID:GDXGDmu8
dH5c0ce5とprd8Ws7gへ
大人になれよ。結構キモイことであらそってるのわかる?
5年後とか後悔するぜ、俺ってこんなキモかったんだーって。
後日本の犯罪率をあげるのはよしてね。うんこちゃん。

155 :名無しSUN:05/03/08 04:20:14 ID:ynUHywLy
age

156 :負け犬:05/03/08 04:55:44 ID:d6afBlzq
ワンワン!トウキョウマケダワン!

157 :名無しSUN:05/03/08 16:15:43 ID:m1qoKYAZ
age


158 :名無しSUN:05/03/08 18:29:13 ID:??? ?
まぁ…
なんだな…
とりあえず…
これはもうだめかもわからんねw

159 : :05/03/09 10:59:49 ID:YaTupF8q
名古屋って東京と比べるとド田舎だよな。
歩いてる奴もドン臭い奴が多い。

160 :名無しSUN:05/03/09 11:38:33 ID:oG8+tzeA
負け犬東京人の遠吠えキター

ワン ワン コトシモ ヤッパリ カテナカッタワン

見苦しいねw

161 :名無しSUN:05/03/09 12:51:43 ID:GwjCkSZp
花粉症で気象に関してはド素人の俺からの質問なんだけど、
なんで雪が多い方が勝ちなの?
さっぱりワケワカメなんですが。
明らかに都会度からすれば東京が上でしょ。
そもそも、雪を大喜びする感覚がワカラソ。

162 : :05/03/09 13:18:32 ID:YaTupF8q
名古屋は東京より田舎と本当のこと書かれて余程悔しいらしい。
田舎のクセに風景が良い訳でもなく、全てが中途半端。それが名古屋。

163 :名無しSUN:05/03/09 14:14:33 ID:oG8+tzeA
粘着コンプ東京人キモイw

164 : :05/03/09 18:43:19 ID:YaTupF8q
東京>>>>>名古屋だな。全ての面で。

165 :名無しSUN:05/03/09 19:25:27 ID:LUEKMK9a
ど っ ち も 地 域 自 慢 板 で や れ 

166 :名無しSUN:05/03/09 19:25:51 ID:oG8+tzeA
積雪
名古屋>>>>>>>越えられない壁>>>>>>>東京

167 : :05/03/10 01:25:28 ID:F6IGf+q+
名古屋って5階建て以上のビルがなくて笑える。
まさにド田舎。(ゲラ!

168 :名無しSUN:05/03/10 09:34:14 ID:PT47lqnZ
ビルの高さだけがよりどころの哀れな東京人w

積雪の高さ
名古屋>>>>>>>越えられない壁>>>>>>>東京


169 :名無しSUN:05/03/11 19:05:34 ID:E1qeu//n
おいおいww

まさか、味噌豚どもは、3月に名古屋で雪が積もると思ってるのかwwwww
有得ないしwwwwww

大埼玉帝国に平伏すが良いwwwww
ゴミ味噌ヲタどもwwwwwwwwww

170 :名無しSUN:05/03/11 20:14:01 ID:q0gn51wh
東京のほうが雪が少なくて暮らしやすいじゃん。

171 :名無しSUN:05/03/12 01:03:14 ID:d5n9iK2q
負け犬ワンワン!

172 :名無しSUN:05/03/12 10:34:13 ID:aIvESeGO
マケ イヌ ワンワン

トウキョウジャ  ドウシテモ ナゴヤニ カテナイワンwwwww

173 :名無しSUN:05/03/13 03:23:43 ID:ntXwZnyh
一宮でうっすらと車などに雪が積もったぞ

174 :関東人:05/03/13 03:33:41 ID:WD+3wCmg
まぁ、しかし名古屋近辺の女子高生はこっちよりも可愛いな。

175 :名無しSUN:05/03/13 07:54:01 ID:YtLX7nZ3
名古屋って全ての面で東京より劣ってるな。

176 :名無しSUN:05/03/13 12:59:30 ID:EF5jxgLn
>>175
激しく同意だぜwww

もし、今日名古屋で積雪したら、175が土下座して写真をうpするぜ!!

177 :名無しSUN:05/03/13 14:24:38 ID:YtLX7nZ3
名古屋って車のナンバー、何? 名古屋? 愛知? どちらにしてもダセェよな。
やはり品川って響きが良くてカッコイイ。

178 :今井真人 ◆S2yj/4JbpA :05/03/14 03:53:41 ID:RSkcEHRX
名古屋市には人口が多いのにド田舎の象徴である地名に大字・字がある。

179 :名無しSUN:05/03/14 08:29:27 ID:Hf7zHVMp
負けたからってそんなにひがまなくてもw

180 :名無しSUN:05/03/14 09:14:28 ID:VYFNsH6K
>>178
それが何か問題でも?

181 :名無しSUN:05/03/14 15:07:16 ID:8JxO8CbT
関東=東京タワー、お台場、TDL
関西=通天閣、道頓堀、USJ

東海=セントレアw

182 :名無しSUN:05/03/14 16:37:57 ID:Hf7zHVMp
非雪国 地区代表最深雪

東海代表名古屋8p>中国四国代表広島7cm>九州代表福岡5cm>関東代表東京2cm>関西代表大阪1cm
                          ↑
プ
なんというか今年もやっぱりの結果でしたなぁw


183 :東京都足立区梅田在住今井真人 ◆f.EsLE9CIc :05/03/14 16:59:44 ID:RSkcEHRX
名古屋市民へこの地名が読めるか?
舎人何て読みますか?
100メートル道路は税金の無駄遣いだ!

184 :名無しSUN:05/03/14 17:13:11 ID:WElCiwwe
東京>大阪>福岡>札幌>>>>>>>>>名古屋

185 : :05/03/14 18:34:15 ID:LrYvWx9w
名古屋=負け犬の住む街

186 :名無しSUN:05/03/14 20:02:08 ID:9qFWRoBR
              ,,,,,,,,,,,,,,,,,,,, 
             /": : : : : : : : \ 
           /-─-,,,_: : : : : : : : :\ 
          /     '''-,,,: : : : : : : :i 
          /、      /: : : : : : : : i     ________ 
         r-、 ,,,,,,,,,,、 /: : : : : : : : : :i    / 
         L_, ,   、 \: : : : : : : : :i   / 煽ってる奴は
         /●) (●>   |: :__,=-、: / <   厨房かなと思っている
        l イ  '-     |:/ tbノノ    \     
        l ,`-=-'\     `l ι';/      \  ニート(24・男性) 
        ヽトェ-ェェ-:)     -r'          ̄ ̄ ̄ ̄ ̄ ̄ ̄ ̄ 
         ヾ=-'     / /   
     ____ヽ::::...   / ::::| 
  / ̄ ::::::::::::::l `──''''   :::| 

187 :名無しSUN:05/03/14 23:40:13 ID:vCTtg/94
>>182
なんつーか、地域で一番でかい都市は、一番雪が積もらない場所にあるんだなと実感。
京都だ岐阜だ八王子だと言っていたらきりが無い

188 :名無しSUN:05/03/15 08:26:07 ID:cEghfUX9
              ,,,,,,,,,,,,,,,,,,,,
             /": : : : : : : : \
           /-─-,,,_: : : : : : : : :\
          /     '''-,,,: : : : : : : :i
          /、      /: : : : : : : : i     ________
         r-、 ,,,,,,,,,,、 /: : : : : : : : : :i    /
         L_, ,   、 \: : : : : : : : :i   / 東京そのものが
         /●) (●>   |: :__,=-、: / <   負け犬かなと思っている
        l イ  '-     |:/ tbノノ    \    
        l ,`-=-'\     `l ι';/      \  ニート(24・男性)
        ヽトェ-ェェ-:)     -r'          ̄ ̄ ̄ ̄ ̄ ̄ ̄ ̄
         ヾ=-'     / /  
     ____ヽ::::...   / ::::|
  / ̄ ::::::::::::::l `──''''   :::|


189 :名無しSUN:05/03/15 18:48:50 ID:FKKlGHSN
 

190 :名無しSUN:05/03/16 05:14:48 ID:Kc5t/Ixp
名古屋だけは住みたくない。
住所聞かれても恥ずかしくて答えられないし。

191 :名無しSUN:05/03/16 09:13:35 ID:qkIfjwcd
>>183
とねり?
お国自慢板のスレッドみたいです。
不毛な論争はおやめになって。

192 :名無しSUN:05/03/16 09:22:10 ID:ZJy7XQt+
去年名古屋(中区)から東京に移り住んだ知人に
東京の印象を聞いた答えは

「人間の住むところではない」とのこと(マジ)
よほどひどいところなんだろうね東京はw

193 :名無しSUN:05/03/16 11:40:25 ID:6rY3LTl9
nagayaは住みやすいよーー

194 :名無しSUN:05/03/16 15:35:44 ID:Kc5t/Ixp
名古屋に住んでたら人に住所教えられない。
東京でよかった。

195 :名無しSUN:05/03/16 17:29:54 ID:p8y6e3D1
>>192
そりゃ東京の中心は住めんよ
でも、外れはただの住宅地で静か

ただ郊外でも1時間300円とかする駐車場には萎える

196 :名無しSUN:05/03/17 08:29:44 ID:GXB+FYfA
南低カキ氷しか降らない関東に生まれなくて本当に良かった
嫌味ではなく心の底からそう思うね
関東の人にも本当の「雪」(季節風のサラサラ雪)を知ってほしい!w

197 :今井真人 ◆S2yj/4JbpA :05/03/19 19:47:44 ID:76Dtc5V9
漫画家鳥山明が名古屋=愛知県のイメージを悪くしたのは事実です!

198 :名無しSUN:05/03/20 11:16:05 ID:ROLMZ7T2
トヨタ生協メグリア金谷町店!
いっぺんくらい言わなくてもレシートよこせ!!!!
釣り銭とレシートは一緒に渡すもんだぞゴラ!!!

199 :名無しSUN:2005/03/21(月) 15:08:41 ID:77uPbPrs
「名古屋って名古屋県?」
って東京の奴に言われた

200 :名無しSUN:2005/03/21(月) 18:37:31 ID:HeBPD7Xy
名古屋って部落とは違うのか?

201 :名無しSUN:2005/03/22(火) 02:13:05 ID:+sxNuU9T
クソ田舎

202 :名無しSUN:2005/03/22(火) 08:00:31 ID:PDIfKnIp
名古屋の悪口を書き名古屋を誹謗、中傷する野蛮で幼稚な行為は
名古屋に対するコンプレックスの裏返しなんだよ。
韓国の竹島問題に対するバカ騒ぎと一緒。
書いた本人は気付いていないだろうがね。

203 :名無しSUN:2005/03/22(火) 09:14:39 ID:rSM4abyZ
積雪


さいたま市・京都市>>>>広島市>>>>>>>>>>名古屋市

204 :名無しSUN:2005/03/22(火) 10:08:44 ID:aXhYQllz
コンプ厨キタ━━━━━(゚∀゚)━━━━━ !!!!!

205 :名無しSUN:2005/03/22(火) 12:10:41 ID:mPlUmRE+
>>204
悔しいんでしょww

206 :名無しSUN:2005/03/22(火) 12:49:36 ID:aXhYQllz
最近の積雪実績


名古屋>>>>>>>>>>>>>>>>さいたま市・京都市・広島市


207 :名無しSUN:2005/03/22(火) 13:20:00 ID:mPlUmRE+
>>206
何だ最近ってwwwww

温暖化が顕著になりだした70年代後半から出してみろよw  カスww
84年を出されるのが嫌なのか?ww
だったら85年からでも許してやるぞw

お前本当にさいたま市や京都市に勝てると思ってるのか?
アホ名古屋市が一番じゃなきゃ納得出来ないみたいだが無理だぞ。

諦めろやwwww

208 :名無しSUN:2005/03/22(火) 13:46:15 ID:rSM4abyZ
さいたま市は熊谷市の8割3分くらいで出したら?
それでも名古屋市には勝つだろうけどねW

209 :名無しSUN:2005/03/22(火) 14:08:21 ID:yzZrk8cb
暇だったから1961年〜今年までのデータを出したから貼ってみるよー。
※2004-2005シーズンは既に出てる。

1961年1月〜2005年3月 降雪量上位10都市

. 1位 岐. 阜 .市   1983cm
. 2位 甲. 府 .市   1331cm
. 3位 山. 口 .市   1188cm
. 4位 宇都宮市   1031cm
. 5位 前. 橋 .市 .   947cm
. 6位 熊. 谷 .市 .   783cm
. 7位 水. 戸 .市 .   707cm
. 8位 京. 都 .市 .   702cm
. 9位 横. 浜 .市 .   632cm
10位 名古屋市 .   624cm

210 :名無しSUN:2005/03/22(火) 14:12:20 ID:rZO3Gqzi
ヘタすれば来年横浜抜きそうだな>名古屋

211 :名無しSUN:2005/03/22(火) 14:17:23 ID:yzZrk8cb
1961年1月〜2005年3月 降雪量上位10都市 政令指定都市


. 1位 京. 都 .市   702cm
. 2位 さいたま   665cm  ※熊谷市の8割5分掛け
. 3位 横. 浜 .市   632cm
. 4位 名古屋市   624cm
. 5位 東京23区   579cm
. 6位 広. 島 .市   566cm
. 7位 千. 葉 .市   322cm
. 8位 福. 岡 .市   289cm
. 9位 大. 阪 .市   144cm
10位 神. 戸 .市   107cm

212 :名無しSUN:2005/03/22(火) 14:18:24 ID:yzZrk8cb
1961年1月〜2005年3月 降雪量上位10都市 政令指定都市


. 1位 京. 都 .市   702cm
. 2位 さいたま .   665cm  ※熊谷市の8割5分掛け
. 3位 横. 浜 .市   632cm
. 4位 名古屋市   624cm
. 5位 東京23区   579cm
. 6位 広. 島 .市   566cm
. 7位 千. 葉 .市   322cm
. 8位 福. 岡 .市   289cm
. 9位 大. 阪 .市   144cm
10位 神. 戸 .市   107cm

213 :名無しSUN:2005/03/22(火) 14:20:37 ID:yzZrk8cb
温暖化以降のデータはどうするの?
1979年の大暖冬からの集計でいい?

そんなの必要ないかな?

214 :名無しSUN:2005/03/22(火) 14:35:24 ID:yzZrk8cb
これでもう争いはなくなるんじゃでしょう。
てか、ここまで出したら荒さう余地もないか。
しいて言うなら、横浜市 vs 名古屋市 だけかな。

1979年〜2005年 降雪量上位10都市 政令指定都市

1位 さいたま .   431cm  ※熊谷市の8割5分掛け
2位 京. 都 .市   426cm
3位 横. 浜 .市   387cm
4位 名古屋市   380cm
5位 東京23区   326cm
6位 広. 島 .市   316cm
7位 千. 葉 .市   243cm
8位 福. 岡 .市   117cm
9位 大. 阪 .市 .   84cm
10位 神. 戸 .市 .   53cm

215 :名無しSUN :2005/03/22(火) 14:42:04 ID:5Q3a2hCw
さいたま市のデータは関東平野の中心部(実際はもう少し北東だが)の実績。
南岸時は標高がゼロでも他地方を圧倒する積雪量になることがうかがえる。

216 :名無しSUN:2005/03/22(火) 14:53:48 ID:yzZrk8cb
見栄えが悪いから少し修正

1979年〜2005年 降雪量上位10都市 政令指定都市

. 1位 さいたま .   431cm  ※熊谷市の8割5分掛け
. 2位 京. 都 .市   426cm
. 3位 横. 浜 .市   387cm
. 4位 名古屋市   380cm
. 5位 東京23区   326cm
. 6位 広. 島 .市   316cm
. 7位 千. 葉 .市   243cm
. 8位 福. 岡 .市   117cm
. 9位 大. 阪 .市 .   84cm
10位 神. 戸 .市 .   53cm

上位2都市は政令市でも別格だねえ。

217 :名無しSUN:2005/03/22(火) 16:02:30 ID:aXhYQllz
名古屋の追い落としに必死なようだけど
現実的な最近5年間の客観的なデータが不足しているようだね

いつまでも過去の栄光にしがみつくのは正直言って見苦しいなw

218 :名無しSUN:2005/03/22(火) 17:25:12 ID:1CZTfxp8
>>217
お前いつも監視してる奴だろw

誰が見てもお前が一番見苦しいよw
>>216のデータでさえ納得できないお前って相当キモイぞ。

そんなに自分の住んでる都市で一番になりたいなら引越ししろよw
名古屋ではどうあがいても無理だしな。

219 :名無しSUN:2005/03/22(火) 18:59:03 ID:aXhYQllz
>>218
いや俺は客観的な現実を語っているだけなんだが
10年も20年も前のデータ引っ張り出して
あーだこーだ言うのもちょっと問題かと思ってね
ただそれだけのことだよ

客観的で現実的な最近の積雪実績

名古屋>>>>>>>>>>>>>>>>さいたま市・京都市・広島市



220 :名無しSUN:2005/03/22(火) 19:22:43 ID:t1pjGcds
オイ頼むから、なんかキモイんだよ

221 :名無しSUN:2005/03/22(火) 19:27:49 ID:d1l5xIyo
>>219=ID:aXhYQllz
必死すぎw
京都、さいたまには勝てるわけがないだろ。

名古屋の恥だから死んでくれよ

222 :名無しSUN:2005/03/22(火) 20:03:50 ID:8vjpkeiZ
すまん、まじできもいわ。

223 :名無しSUN:2005/03/22(火) 22:50:07 ID:KdLJvywk
名古屋人キモイわ

224 :名無しSUN:2005/03/22(火) 22:53:42 ID:d7TSRhL3
ここをお国自慢板か何かと勘違いしてるような輩は帰ってくれないか
どうでもいいことで地域ごとに罵り合ってるのを見せられるのは見苦しいし不愉快。
スレの中だけで争ってるならともかく、こういうスレタイのスレが上がってるのは嫌だ。

225 :名無しSUN:2005/03/23(水) 09:56:08 ID:cVXIDQLL
糞スレ建てて必死に名古屋を追い落とそうとするコンプ厨キモイw

>>220-223=コンプ厨

226 :名無しSUN:2005/03/24(木) 23:53:47 ID:tMZaZOnV
↑とりあえず2ch各板で、名古屋スレを検索してみると、考えが変わるかと

227 :名無しSUN:2005/03/27(日) 17:19:36 ID:Ec9g5+/B
名古屋では、
『中◎区に住んでます』・・・『エッ?(こいつDQN?)』

でも一歩 愛知県を出ると
『名古屋に住んでます』・・・『エッ?(こいつDQN?)』

って感じですかね。



228 :名無しSUN:2005/03/27(日) 20:33:58 ID:4zgonisC
ホント、地域叩き厨が住み着いて、気象系スレはどうしようもないな。

229 :名無しSUN:2005/04/08(金) 17:02:21 ID:1um7ccqn
韓国と名古屋は、仕方がない。どの板でも嫌われ者。

230 :名無しSUN:2005/05/01(日) 04:14:20 ID:k1q8GrFw
nn

231 :名無しSUN:2005/05/09(月) 12:29:12 ID:b6lADHy7
他所を差別することでしか
自尊心を保てない関東人って哀れ

232 :名無しSUN:2005/05/14(土) 11:49:51 ID:Sg6tkm15
>>231
私は東北人ですが、名古屋に関しては差別されてもしょうがない事が大杉。
名古屋内部でもすぐに差別/序列の固まりなんだから自分たちが差別されてもしょうがない。
何でも隠したがる気質も今時どうなんでしょう。
トヨタもそのうち三菱みたいな問題起こさないように頑張って下さいね。

233 :名無しSUN:2005/05/18(水) 12:23:25 ID:TtLC3g9g
>>232
閉鎖的、排他的な東北の田舎者こそ差別されて当然
東京などの関東も所詮は上京してきた東北の田舎者の集まりだが

234 :名無しSUN:2005/05/22(日) 06:01:56 ID:FRNsrbgM
外界との交流をせずに胃の中の蛙の名古屋がえらそうに何言ってるんだ?
UFJも隠し立てした挙句におとり潰しの刑で東京三菱に吸収されるし、だめなものはだめだ。
東北地方は閉鎖的でも排他的でもなく、身の程をわきまえているだけだよ。
名古屋は身の程わきまえずにえらそうにするから叩かれる。
日本の中心だの将軍を輩出しただのバカな自慢しても所詮は只の地方都市。
関東人が名古屋を差別云々じゃなくてバカをバカって言ってるだけだよ。
差別好きは名古屋だろ?未だにBだの在だので町中大騒ぎしてる。
だったら関西みたいにきっちり線引きすればいいのにそれすらせずに、『あそこの学区は場所が良い/悪い』などと差別する。
アーッばかばかしい。

235 :名無しSUN:2005/05/23(月) 18:59:20 ID:MJ9Yao0T
>>234←典型的な池沼コピペ

236 :名無しSUN:2005/06/04(土) 14:16:44 ID:L7Y6YZxd
(住んでみたい都市)             (ファッショナブルだと思う都市)
1札幌市592人11.8%              1横浜市977人17.1%
2横浜市509人10.1%              2東京都977人17.1%
3京都市497人9.9%               3神戸市910人15.9%
4神戸市349人6.9%               4札幌市485人8.5%
5仙台市307人6.1%               5京都市460人8.1%
6東京都293人5.8%               6大阪市356人6.2%
7福岡市290人5.7%               7福岡市290人5.1%
8大阪市213人4.2%               8仙台市202人3.5%
9金沢市171人3.4%               9長崎市121人2.1%
10鎌倉市139人2.8%               10金沢市93人1.6%


住みたく無い町・・・・・・全国一位名古屋
魅力を感じない町・・・・全国一位名古屋
二度と訪れたくない町・全国一位名古屋


237 :栃木の小山:2005/06/04(土) 15:00:11 ID:7KS4GVHe
冬の場合1位旭川、2位占冠、3位帯広、4位釧路、5位網走、6位札幌、7位稚内、8位水上、9位青森、10位盛岡
論外1位沖縄、2位小笠原、3位奄美、4位地元、5位種子島、
夏の場合1位根室、2位襟裳岬、3位釧路、4位稚内、5位札幌、6位盛岡、7位八戸、8位青森、9位銚子、10位北茨城、圏外だが水戸や仙台でも可
論外1位名古屋これはダントツの1位だよ、2位奄美、3位那覇、4位地元、5位大阪、

238 :名無しSUN:2005/06/04(土) 16:40:41 ID:7dMpgmc6
大阪と名古屋は殿堂入り

239 :名無しSUN:2005/06/07(火) 07:58:06 ID:gg4b697B
なんか名古屋の追い落としに必死な奴がいる

240 :名無しSUN:2005/06/11(土) 16:32:32 ID:ABjGMTGF
っていうか名古屋は落ちてるからいまさら落とそうと思っても落ちない。
一回持ち上げてから落とすか、穴掘って埋めてしまうか、どっちかはっきりしてくれ。

241 :名無しSUN:2005/06/11(土) 20:25:08 ID:fKgvESw8 ?##
中部国際空港(セントレア)の気象通報見つけますた。
http://meteocentre.com/cgi-bin/get_sao_stn?STN=RJGG&DELT=6

RJGG 111030Z 30002KT 9999 FEW015 SCT040 BKN060 22/21 Q0998 NOSIG =

RJGG・・・中部国際空港の識別記号
111030Z・・・グリニッジ標準時11日10時30分現在(日本時間19時30分)Zは知らん
30002KT・・・最初の300は風向、北から時計回りで300度(北西だね)02KTは風速毎時2ノット(1ノットは1852メートル)
9999・・・視程(視界)単位1mで10000m以上は9999mと表示
FEW015・・・雲。単位は100フィート(1フィートは約30cm)FEWはちょっと。ちょっと15百フィート(450m)に雲
SCT040・・・雲、上と同じ SCTはまばら。40百フィート(1200m)にまばらな雲
BKN060・・・雲、上と同じ BKNはばらばら。60百フィート(1800m)にばらばらの雲
22/21・・・最初の22は気温22度。次の21は露点気温 21度で計算上湿度100%になる
Q0998・・・Qは気圧の意味? 気圧998hPa
NOSIG = ・・・これ知らん

242 :名無しSUN:2005/06/11(土) 20:33:41 ID:yk4bHou4
名古屋はトヨタ様のおかげで、景気は日本の中国並だからw


243 :名無しSUN:2005/06/11(土) 20:35:41 ID:fKgvESw8 ?##
RJGG 111100Z VRB02KT 9999 FEW020 BKN045 BKN070 22/21 Q0998 NOSIG =

RJGG セントレア
111100Z 20時
VRB02KT 風向不定毎時2ノット(1m/s)
9999 視界10k以上
FEW020 20百フィート(600m)にちょっと雲
BKN045 1350mにばらばらの雲
BKN070 2100mにばらばらの雲
22/21 気温22度 露点気温21度
Q0998 気圧998hPa
NOSIG =

空港気象通報の読み方はこことか
http://www.ny.airnet.ne.jp/satoh/metarhowtoreadtxt.htm

244 :名無しSUN:2005/06/11(土) 20:44:34 ID:a6L1tzIY
名古屋なんて大阪と東京にはさまれた単なる通過点じゃん。

245 :名無しSUN:2005/06/11(土) 20:48:08 ID:fKgvESw8 ?##
RJGG 111130Z 25003KT 9999 FEW020 BKN080 BKN/// 22/21 Q0998 BECMG 28005KT =

RJGG セントレア
111130Z 20時30分
25003KT 風向北から250度(約西)風速1.5m/s
9999 視界10k以上
FEW020 BKN080 BKN/// 600mにちょっと雲、2100mにばらばらの雲 それ以上不明
22/21 気温22度 露点気温21度
Q0998 気圧998hPa
BECMG 28005KT = BECMGって訂正? 風向西 風速2.5m/s

翻訳してると次の通報が来るね (w

246 :名無しSUN:2005/06/11(土) 21:14:14 ID:fKgvESw8 ?##
RJGG 111200Z 00000KT 9999 FEW020 SCT080 BKN/// 22/20 Q0998 NOSIG =

RJGG セントレア
111200Z 21時
00000KT 無風
9999 視界10k以上
FEW020 SCT080 BKN/// 600mにちょっと雲 2400mにばらばらな雲 それ以上にもばらばらな雲があるが確認できず
22/20 気温22度 露点気温20度
Q0998 気圧998hPa
NOSIG = ノーシグナル(以上って言う意味?)

247 :名無しSUN:2005/06/11(土) 22:02:34 ID:ABjGMTGF
梅雨。
なんて名古屋に似合わない響きなんだろう。


248 :名無しSUN:2005/06/11(土) 22:29:12 ID:fKgvESw8 ?##
RJGG 111300Z 35006KT 1600 R36/P1800N BR FEW002 BKN005 BKN/// 22/20 Q0998 NOSIG =

RJGG セントレア
111300Z 22時
35006KT 北3m/s
1600 視界1600m なんか急に下がったガスか
R36/P1800N よくわからんが36番滑走路(1本しかないだろうw)北侵入で視界1800m?
BR 改行?
FEW002 BKN005 BKN/// 60mにちょっと雲 150mにばらばらの雲 それ以上は不明
22/20 気温22度 露点温度20度(湿度90%)
Q0998 気圧998hPa
NOSIG = 以上

露点温度 湿度の換算表見つけますた。
http://www.sky-net.or.jp/hige/roten-fukai/rotenondo.htm

249 :名無しSUN:2005/06/11(土) 22:41:43 ID:fKgvESw8 ?##
おっ、セントレアの気象通報消えた。
晒すべきではなかったのかorz
飛行機落ちたらごめんね。

250 :名無しSUN:2005/06/11(土) 23:22:23 ID:LRkSOQ+x
>>248
BRはミスト(=もや)です。
こんな間違え、もーやだ。

NOSIGは変化なしです。

251 :名無しSUN:2005/06/11(土) 23:26:04 ID:fKgvESw8 ?##
>>250
おお、サンクスです。さすが専門板
N速の気温スレ落ちたんで来ましたから
専門用語よくわからんです。

252 :名無しSUN:2005/06/11(土) 23:33:48 ID:LRkSOQ+x
>>251
「お前は喜久蔵か?」なんて突っ込みを期待してたんですが、、、
(自分で突っ込んでどうする)

253 :名無しSUN:2005/06/12(日) 00:22:14 ID:bcIrEQwH ?##
セントレア復活 ほっ
RJGG 111430Z 35004KT 3400 BR FEW015 SCT020 BKN050 22/20 Q0999 NOSIG =

RJGG セントレア
111430Z 23時30分
35004KT 北の風2m/s
3400 視界3400m
BR もや(サンクス)
FEW015 SCT020 BKN050 450mにちょっと雲 600mに雲散在 1500mにばらばらな雲
22/20 気温22度 湿度90%
Q0999 気圧999hPa
NOSIG = 変化なし(サンクス)


254 :名無しSUN:2005/06/12(日) 00:24:40 ID:HxO2wdou
スレ違いに気付け

255 :名無しSUN:2005/06/12(日) 00:26:18 ID:bcIrEQwH ?##
>>254
やっぱ、スレ違い?
新しいスレ立てたほうがいい?

256 :名無しSUN:2005/06/12(日) 00:33:38 ID:bcIrEQwH ?##
RJGG 111500Z 34007KT 5000 BR FEW020 SCT030 BKN/// 22/20 Q0999 TEMPO 4500 BR =

RJGG セントレア
111500Z 24時
34007KT 北の風3.5m
5000 視界5000m
BR もや
FEW020 SCT030 BKN/// 600mにちょっと雲 900mに雲散在 それ以上はばらばらな雲
22/20 気温22度 湿度90%
Q0999 気圧999hPa
TEMPO 4500 BR = 一時的に視界4500mのもやであった?

新スレ立ててすぐ放棄するといけないから
続くようなら新スレ立てるね。

257 :名無しSUN:2005/06/12(日) 00:39:57 ID:HxO2wdou
>>255
情報はありがたいんだけど、元は名古屋をバカにするスレなのよ。
申し訳ないっす。

258 :名無しSUN:2005/06/12(日) 00:48:21 ID:bcIrEQwH ?##
RJGG 111530Z 35006KT 6000 FEW020 BKN030 BKN/// 22/20 Q0999 TEMPO 4500 BR =

RJGG セントレア
111530Z 0時30分
35006KT 北の風3m/s
6000 視界6000m
FEW020 BKN030 BKN/// 600mにちょっと雲 900mにまばらな雲
22/20 気温22度 湿度90%
Q0999 気圧999hPa
TEMPO 4500 BR = 一時的に視界4500mのもやであった?

259 :名無しSUN:2005/06/12(日) 01:01:59 ID:/7qaJGmG
>>257
ヒント:スレが立てられた日付

260 :名無しSUN:2005/06/12(日) 01:17:18 ID:bcIrEQwH ?##
RJGG 111600Z 34007KT 7000 FEW020 SCT030 BKN040 22/20 Q0999 NOSIG =

RJGG セントレア
111600Z 1時
34007KT 北の風3.5m/s
7000 視界7000m
FEW020 SCT030 BKN040 600mにちょっと雲 900mに雲散在 1200mにばらばらな雲
22/20 気温22度 湿度90%
Q0999 気圧999hPa
NOSIG = 変化なし

261 :名無しSUN:2005/06/12(日) 01:36:49 ID:HxO2wdou
>>259
うん、翌日に大雪だったからまあ良かったけど、上がると目障りなんだな。

262 :名無しSUN:2005/06/12(日) 01:47:04 ID:bcIrEQwH ?##
RJGG 111630Z 33009KT 8000 FEW020 SCT030 BKN040 22/20 Q0999 NOSIG =

RJGG セントレア
111630Z 1時半現在
33009KT 北の風4.5m
8000 視界8000m
FEW020 SCT030 BKN040 上空600mにちょっと雲 900mに雲散在 1200mにばらばらな雲
22/20 気温22度 湿度90%
Q0999 気圧999hPa
NOSIG = 変化なし

263 :名無しSUN:2005/06/12(日) 01:50:32 ID:/7qaJGmG
>>261
ヒント:大雪確実予想されていた前日

264 :名無しSUN:2005/06/12(日) 02:13:31 ID:bcIrEQwH ?##
RJGG 111700Z 33013KT 9999 FEW020 SCT030 BKN040 22/19 Q0999 NOSIG =

RJGG セントレア
111700Z 2時現在
33013KT 北の風6.5m/s
9999 視界10km以上
FEW020 SCT030 BKN040 上空600mにちょっと雲 900mに雲散在 1200mにばらばらな雲
22/19 気温22度 湿度85%
Q0999 気圧999hPa
NOSIG = 変化なし

ちょっと風が出てきたな

265 :名無しSUN:2005/06/12(日) 02:44:49 ID:bcIrEQwH ?##
RJGG 111730Z 35008KT 9999 FEW020 SCT030 BKN050 22/19 Q1000 NOSIG =

RJGG セントレア
111730Z 2時半現在
35008KT 北の風4m/s
9999 視界10km以上
FEW020 SCT030 BKN050 上空600mにちょっと雲 900mに雲散在 1500mにばらばらな雲
22/19 気温22度 湿度85%
Q1000 気圧1000hPa
NOSIG = 変化なし


266 :名無しSUN:2005/06/12(日) 03:11:10 ID:bcIrEQwH ?##
RJGG 111800Z 35011KT 9999 FEW020 SCT030 BKN040 21/18 Q0999 NOSIG =

RJGG セントレア
111800Z 3時現在
35011KT 北の風5.5m/s
9999 視界10km以上
FEW020 SCT030 BKN040 上空600mにちょっと雲 900mに雲散在 1200mにばらばらな雲
21/18 気温21度 湿度85%
Q0999 気圧999hPa
NOSIG = 変化なし

267 :名無しSUN:2005/06/12(日) 03:45:52 ID:bcIrEQwH ?##
RJGG 111830Z 36011KT 9999 FEW020 SCT040 21/17 Q0999 NOSIG =

RJGG セントレア
111830Z 3時半現在
36011KT 北の風5.5m
9999 視界10km以上
FEW020 SCT040 上空600mにちょっと雲 1200mに雲散在
21/17 気温21℃ 湿度80%
Q0999 気圧999hPa
NOSIG = 変化なし

268 :名無しSUN:2005/06/12(日) 04:12:39 ID:bcIrEQwH ?##
RJGG 111900Z 34009KT 9999 FEW020 SCT040 BKN/// 21/17 Q0999 NOSIG =

RJGG セントレア
111900Z 4時現在
34009KT 北の風4.5m
9999 視界10km以上
FEW020 SCT040 BKN/// 空600mにちょっと雲 1200mに雲散在 それより上にばらばらな雲
21/17 気温21℃ 湿度80%
Q0999 気圧999hPa
NOSIG = 変化なし

269 :名無しSUN:2005/06/12(日) 05:25:45 ID:bcIrEQwH ?##
RJGG 112000Z 35008KT 9999 FEW015 SCT/// 21/17 Q1000 NOSIG =

RJGG セントレア
112000Z 5時
35008KT 北の風4m
9999 視界良好
FEW015 SCT/// 上空450mに少し雲 それより上にも雲が散在
21/17 気温21℃ 湿度80%
Q1000 気圧1000hPa
NOSIG = 変化なし


270 :名無しSUN:2005/06/12(日) 06:03:22 ID:bcIrEQwH ?##
RJGG 112030Z 32009KT 9999 FEW020 SCT/// 22/18 Q1000 NOSIG =

RJGG セントレア
112030Z 5時半現在
32009KT 北西の風4.5m
9999 視界良好
FEW020 SCT/// 上空600mに少し雲 それより上にも雲が散在
22/18 気温22℃ 湿度80%
Q1000 気圧1000hPa
NOSIG =


271 :名無しSUN:2005/06/12(日) 06:48:01 ID:bcIrEQwH ?##
RJGG 112130Z 32016KT 9999 FEW020 SCT150 BKN/// 23/17 Q1000 NOSIG =

RJGG セントレア
112130Z 6時半現在
32016KT 北西の風8m
9999 視界良好
FEW020 SCT150 BKN/// 曇り
23/17 気温23度 湿度70%
Q1000 気圧1000hPa
NOSIG =

272 :名無しSUN:2005/06/12(日) 07:25:19 ID:bcIrEQwH ?##
RJGG 112200Z 32016KT 9999 FEW020 SCT150 BKN/// 23/17 Q1000 NOSIG =
セントレア 7時 曇り 23℃

273 :名無しSUN:2005/06/12(日) 07:58:29 ID:bcIrEQwH ?##
RJGG 112230Z 32014KT 9999 FEW020 SCT150 BKN/// 23/17 Q1001 NOSIG =
セントレア 7時半 曇り 23℃

274 :名無しSUN:2005/06/12(日) 10:12:42 ID:8Ocq6v+L ?##
RJGG 120030Z 32011KT 9999 FEW030 BKN/// 24/17 Q1001 NOSIG =
セントレア 9時半 曇り 24度

275 :名無しSUN:2005/06/12(日) 10:19:17 ID:8Ocq6v+L ?##
RJGG 120100Z 24005KT 210V280 9999 FEW030 SCT180 BKN/// 24/18 Q1000 NOSIG =
セントレア 曇り 24度

210V280 風向210度から280度の間を揺れ動いている。

276 :名無しSUN:2005/06/12(日) 11:52:42 ID:rdKMO119 ?##
RJGG 120230Z 23004KT 9999 FEW030 BKN180 BKN/// 24/19 Q1000 NOSIG =
セントレア 11時半 曇り 24度

277 :名無しSUN:2005/06/12(日) 15:12:18 ID:bcIrEQwH ?##
RJGG 120530Z 26011KT 9999 FEW030 SCT150 BKN180 26/18 Q1000 BECMG 23010KT =

RJGG セントレア
120530Z 2時半現在
26011KT 西の風5.5m
9999 視界良好
FEW030 SCT150 BKN180 曇り
26/18 気温26℃ 湿度60%
Q1000 気圧1000hPa
BECMG 23010KT = 訂正 南西の風5m

今日名古屋涼しそうだねえ

278 :名無しSUN:2005/06/12(日) 15:20:06 ID:bcIrEQwH ?##
RJGG 120600Z 27011KT 9999 FEW030 SCT150 BKN180 25/18 Q0999 BECMG 24008KT =
セントレア 3時 曇り 25℃

279 :名無しSUN:2005/06/12(日) 15:46:31 ID:bcIrEQwH ?##
RJGG 120630Z 26012KT 9999 FEW030 SCT150 BKN180 25/19 Q0999 NOSIG =
セントレア 3時半 曇り 25℃

280 :名無しSUN:2005/06/12(日) 16:16:22 ID:bcIrEQwH ?##
RJGG 120700Z 26009KT 9999 FEW030 SCT150 BKN180 25/18 Q0999 NOSIG =
セントレア 4時 曇り 25℃

281 :名無しSUN:2005/06/12(日) 17:00:26 ID:bcIrEQwH ?##
RJGG 120730Z 28009KT 9999 FEW030 SCT150 BKN180 25/19 Q1000 NOSIG =
セントレア 4時半 曇り 25℃

282 :名無しSUN:2005/06/12(日) 18:24:08 ID:bcIrEQwH ?##
RJGG 120900Z 28014KT 9999 FEW030 BKN180 25/19 Q1000 NOSIG =
セントレア 6時 曇り 25℃

283 :名無しSUN:2005/06/13(月) 06:47:16 ID:zWh9qsCS ?##
RJGG 122130Z 33011KT 6000 NSC 22/17 Q1005 NOSIG =

RJGG セントレア
122130Z 6時半現在
33011KT 北の風5.5m
6000 視界6000m
NSC 晴れ(運行上障害となる雲なし)
22/17 気温22℃ 湿度75%
Q1005 気圧1005hPa
NOSIG = 訂正なし

284 :名無しSUN:2005/06/13(月) 07:07:28 ID:zWh9qsCS ?##
セントレアの天気続きそうだからスレタイ考えたんだけどこんなのだめかな。

【名古屋】セントレア国の天気を語ろう【アワレw】

先ごろ一方的に独立宣言し、独立解放戦線展開中のセントレア国の天気を語るスレです。
セントレア国の天気は、軍事上重要機密とされ、暗号配信されてます。↓
http://meteocentre.com/cgi-bin/get_sao_stn?STN=RJGG&DELT=12
下のような暗号解読サイトがあります。
http://www.ny.airnet.ne.jp/satoh/metarhowtoreadtxt.htm

285 :名無しSUN:2005/06/13(月) 07:20:34 ID:zWh9qsCS ?##
RJGG 122200Z 33012KT 5000 BR NSC 22/17 Q1005 NOSIG =
セントレア 7時 もや 22℃

286 :名無しSUN:2005/06/13(月) 07:45:50 ID:zWh9qsCS ?##
RJGG 122230Z 31009KT 5000 BR NSC 23/16 Q1005 NOSIG =
セントレア 7時半 もや 23℃

雲がないのに(NSC)もや(BR)
さすがセントレア国

287 :名無しSUN:2005/06/13(月) 08:15:33 ID:zWh9qsCS ?##
RJGG 122300Z 33011KT 6000 NSC 24/17 Q1005 NOSIG =

RJGG 遷都麗空
122300Z 8時
33011KT 北の風5.5m
6000 視界6000m
NSC 晴れ
24/17 気温24℃ 湿度75%
Q1005 気圧1005hPa
NOSIG = 訂正なし

288 :名無しSUN:2005/06/13(月) 08:50:34 ID:zWh9qsCS ?##
RJGG 122330Z 34008KT 6000 NSC 24/16 Q1005 NOSIG =
セントレア 8時半 晴れ 24℃

289 :名無しSUN:2005/06/13(月) 09:13:42 ID:zWh9qsCS ?##
RJGG 130000Z 34007KT 8000 NSC 24/17 Q1005 NOSIG =
セントレア 9時 晴れ 24℃

290 :名無しSUN:2005/06/13(月) 13:16:50 ID:zWh9qsCS ?##
RJGG 130330Z 19006KT CAVOK 26/17 Q1004 NOSIG =
セントレア 12時半 快晴 26℃

CAVOK=キャブOK(快晴)

291 :名無しSUN:2005/06/13(月) 13:21:45 ID:zWh9qsCS ?##
RJGG 130400Z 16007KT CAVOK 27/16 Q1004 NOSIG =
セントレア 1時 快晴 27℃

292 :名無しSUN:2005/06/14(火) 00:02:43 ID:ky+UamKL
>>284
空港、航空気象台の天気を語るってな具合にすれば参加範囲広がるよ。

293 :名無しSUN:2005/06/14(火) 01:31:40 ID:4MrS+bWN ?##
>>292
そういえば、気象板に空港、航空気象台スレないみたいですね。
航空板という気もするけど、空港気象台や測候所は気象庁管轄だからいいのかな。
つーか、セントレアまた落ちてるというか、
http://meteocentre.com/
自体落ちてる。
まさか飛行機はインターネットで気象収集してるとは思えんからいいのか。

294 :名無しSUN:2005/06/14(火) 02:42:19 ID:4MrS+bWN ?##
別のサイト見つけた。探せばあるもんだな。
http://adds.aviationweather.gov/metars/
ここはホームページ形式になってないから
いちいち空欄にRJGG(セントレアの識別記号)を入力しなければならない。

295 :名無しSUN:2005/06/14(火) 02:50:02 ID:4MrS+bWN ?##
RJGG 131730Z 14004KT 3500 BR FEW010 21/19 Q1008 NOSIG

RJGG セントレア
131730Z 2時半現在
14004KT 南東の風2m
3500 視界3500m
BR もや
FEW010 300mに少し雲
21/19 気温21℃ 湿度90%
Q1008 気圧1008hPa
NOSIG 訂正なし

296 :名無しSUN:2005/06/14(火) 03:04:10 ID:4MrS+bWN ?##
成田RJAA 東京(羽田)RJTT 関空RJBB 大阪(伊丹)RJOO だからやってみて。

297 :名無しSUN:2005/06/14(火) 03:15:54 ID:4MrS+bWN ?##
RJTT 131730Z 04012KT 9999 BKN015 20/17 Q1009 RMK 7SC015 A2981

RJTT 羽田
131730Z 2時半現在
04012KT 北西の風6m
9999 視界10km以上
BKN015 450mにばらばらの雲がある(ほとんど曇りか)
20/17 気温20℃ 湿度85%
Q1009 気圧1009hPa
RMK 特記事項
7SC015 全天の8分の7にSC(層積雲)がある。
A2981 気圧の水銀柱の値 上のヘクトパスカルと同じ値かな。

羽田は雲の種類なんかも観測してるから、ちょっと難しいね。

298 :名無しSUN:2005/06/14(火) 03:20:24 ID:4MrS+bWN ?##
RJGG 131800Z 16003KT 3000 BR FEW010 SCT015 21/19 Q1008 NOSIG
セントレア 3時 もや 21℃

299 :名無しSUN:2005/06/14(火) 09:23:30 ID:4MrS+bWN ?##
RJGG 140000Z 21008KT 4800 BR FEW020 BKN030 BKN/// 22/19 Q1010 BECMG 7000 NSW =
セントレア 9時 もや 22℃

300 :名無しSUN:2005/06/14(火) 13:04:54 ID:4MrS+bWN ?##
【METAR】空港、航空気象台の天気を語ろう【TAF】
http://science3.2ch.net/test/read.cgi/sky/1118721531/l50
たてたよ。

セントレアはなんかあらしみたいだから、ここでやってるね。

301 :名無しSUN:2005/06/14(火) 13:19:44 ID:4MrS+bWN ?##
RJGG 140400Z 17016KT 8000 FEW025 BKN/// 25/19 Q1010 NOSIG =
セントレア 1時 曇り 25℃

302 :名無しSUN:2005/06/14(火) 21:51:20 ID:4MrS+bWN ?##
RJGG 141230Z 14005KT 6000 FEW015 SCT030 OVC150 22/18 Q1010 NOSIG =

RJGG セントレア
141230Z 9時半
14005KT 南東の風2.5m
6000 視界6000m
FEW015 SCT030 OVC150 曇り OVC(オーバーキャスト)雲いっぱい
22/18 気温22℃ 湿度80%
Q1010 気圧1010hPa
NOSIG =

名古屋水不足? 雨降るといいね

303 :名無しSUN:2005/06/14(火) 22:14:34 ID:4MrS+bWN ?##
RJGG 141300Z 16005KT 6000 FEW010 SCT020 OVC150 21/18 Q1010 NOSIG =
セントレア 10時 曇り 21℃

304 :名無しSUN:2005/06/14(火) 22:58:41 ID:4MrS+bWN ?##
RJGG 141330Z 16007KT 5000 BR FEW010 SCT020 OVC150 22/19 Q1009 NOSIG =
セントレア 10時半 もや 22度

305 :名無しSUN:2005/06/14(火) 23:18:41 ID:4MrS+bWN ?##
RJGG 141400Z 17007KT 5000 BR FEW010 SCT020 BKN040 22/19 Q1009 NOSIG =
セントレア 11時 南の風3.5m もや 22度

306 :名無しSUN:2005/06/14(火) 23:44:58 ID:4MrS+bWN ?##
RJGG 141430Z 16008KT 5000 BR FEW010 SCT020 BKN040 22/19 Q1009 NOSIG =
セントレア 11時半 もや 22度

307 :名無しSUN:2005/06/15(水) 00:15:21 ID:KXn28sVY ?##
RJGG 141500Z 14009KT 6000 FEW010 BKN040 OVC150 22/19 Q1009 NOSIG =
セントレア 12時 曇り 22度

もや解消。もやは、視界5000mまでらすい

308 :名無しSUN:2005/06/15(水) 00:50:35 ID:KXn28sVY ?##
RJGG 141530Z 13012KT 6000 FEW010 SCT040 BKN050 22/19 Q1008 NOSIG =
セントレア 12時半 南東の風6m 曇り 22度

風が出てきた。

309 :名無しSUN:2005/06/15(水) 01:23:40 ID:KXn28sVY ?##
RJGG 141600Z 14011KT 6000 FEW010 SCT040 BKN050 22/19 Q1008 NOSIG =
セントレア 1時 曇り 22度

310 :名無しSUN:2005/06/15(水) 01:48:43 ID:KXn28sVY ?##
RJGG 141630Z 14009KT 6000 FEW010 BKN050 22/19 Q1009 NOSIG =
セントレア 1時半 曇り 22度

311 :名無しSUN:2005/06/15(水) 02:17:17 ID:KXn28sVY ?##
RJGG 141700Z 14008KT 6000 FEW010 SCT050 BKN120 22/19 Q1009 NOSIG =
セントレア 2時 曇り 22度

312 :名無しSUN:2005/06/15(水) 10:18:32 ID:OvJS2UEB ?##
RJGG 150100Z 12011KT 5000 -RA BR FEW010 BKN040 OVC080 19/16 Q1007 TEMPO 4000 -RA BR =
セントレア 10時 雨 19度 

雨キター
「-」弱い 「RA 」雨

313 :名無しSUN:2005/06/15(水) 10:56:37 ID:OvJS2UEB ?##
RJGG 150130Z 09006KT 050V120 8000 -RA FEW020 BKN040 OVC080 20/16 Q1006 NOSIG =
セントレア 10時半 視界8000m 雨 20度

視界回復

314 :名無しSUN:2005/06/15(水) 11:22:44 ID:OvJS2UEB ?##
RJGG 150200Z VRB03KT 8000 FEW020 SCT050 OVC080 20/16 Q1006 BECMG 11010KT =

RJGG セントレア
150200Z 11時
VRB03KT 風向定まらず 1.5m/s
8000 視界8000m
FEW020 SCT050 OVC080 雲いっぱい 雨やんだ
20/16 気温20度 露点温度16度
Q1006 気圧1006hPa
BECMG ちょっと待て 訂正だ
11010KT = 風向東南東 5m/s

315 :名無しSUN:2005/06/15(水) 11:46:10 ID:OvJS2UEB ?##
RJGG 150230Z VRB02KT 7000 -RA FEW020 SCT050 OVC080 21/17 Q1006 BECMG 11010KT =
セントレア国 11時半 また雨ふってきた 21度

316 :名無しSUN:2005/06/15(水) 12:18:09 ID:OvJS2UEB ?##
RJGG 150300Z 25005KT 7000 -RA FEW020 SCT050 OVC080 21/16 Q1006 NOSIG =
セントレア 12時 西の風2.5m 雨 21度

風向き変わった

317 :名無しSUN:2005/06/15(水) 15:50:21 ID:OvJS2UEB ?##
RJGG 150630Z 23008KT 9999 FEW020 SCT040 BKN050 21/17 Q1004 NOSIG =

RJGG セントレア
150630Z 3時半現在
23008KT 南西の風4m
9999 視界良好
FEW020 SCT040 BKN050 曇り
21/17 気温21度 露点温度17度
Q1004 気圧1004hPa
NOSIG =

318 :名無しSUN:2005/06/15(水) 17:19:29 ID:OvJS2UEB ?##
RJGG 150800Z 18008KT 9999 -RA FEW020 SCT030 BKN050 21/18 Q1004 NOSIG =

RJGG セントレア
150800Z 5時
18008KT 南の風 4m
9999 視界良好
-RA 雨マイナス
FEW020 SCT030 BKN050 雲たくさん
21/18 気温21度 露点温度18度
Q1004 気圧1004hPa
NOSIG =

319 :名無しSUN:2005/06/15(水) 20:27:46 ID:OvJS2UEB ?##
RJGG 151100Z 23010KT 9999 -RA FEW015 BKN025 22/19 Q1006 NOSIG =
セントレア 20時 雨 22度

320 :名無しSUN:2005/06/15(水) 21:08:56 ID:OvJS2UEB ?##
RJGG 151130Z 22012KT 6000 -RA BR FEW010 BKN015 21/19 Q1006 TEMPO FEW010 BKN013 BKN025 =
セントレア 20時30分 雨でもや 21時

しかしセントレアのページに「もやは視程1km以上5km以下」
と書いてあるのにな。
http://www.tokyo-jma.go.jp/home/chubu/metar_1.htm
視程6kmあるよ。変だな。


321 :名無しSUN:2005/06/15(水) 21:48:23 ID:OvJS2UEB ?##
RJGG 151200Z 22014KT 5000 -RA BR FEW005 SCT008 BKN015 21/19 Q1006 TEMPO 4500 -RA BR FEW005 BKN008 BKN015 =

RJGG セントレア
151200Z 9時
22014KT 南西の風7m
5000 視界5000m
-RA BR 小雨ともや
FEW005 SCT008 BKN015 雲たくさん
21/19 気温21度 露点温度19度
Q1006 気圧1006hPa
TEMPO 4500 一時的に視界4500mであった。
-RA BR FEW005 BKN008 BKN015 =

視程5kmで「もや」イイ

322 :名無しSUN:2005/06/15(水) 21:53:45 ID:OvJS2UEB ?##
RJGG 151230Z 22015KT 7000 -RA FEW005 SCT010 BKN015 21/19 Q1007 TEMPO FEW005 BKN008 BKN015 =
セントレア 9時半 雨 21度

視程7000m もや解消イイ

323 :名無しSUN:2005/06/16(木) 00:24:19 ID:VF1r2mTH ?##
RJGG 151500Z 19012KT 4500 -RA BR FEW005 BKN010 BKN015 21/18 Q1008 TEMPO BKN008 BKN015 =

RJGG セントレア島
151500Z 12時
19012KT 南の風6m
4500 視界4500m
-RA BR 小雨 もや
FEW005 BKN010 BKN015 雲たくさん
21/18 気温21℃ 湿度85%
Q1008 気圧1008hPa
TEMPO BKN008 BKN015 = ちょっと待て、さっき雲が降りてきた。


324 :名無しSUN:2005/06/16(木) 00:46:33 ID:VF1r2mTH ?##
RJGG 151530Z 18007KT 140V220 4500 -RA BR FEW008 SCT010 BKN015 20/18 Q1007 TEMPO BKN008 BKN015 =
セントレア島 12時半 南の風3.5m 小雨 もや 20℃

140V220 140度から220度(南東から南西)の間で風が揺れてるよ

325 :名無しSUN:2005/06/16(木) 01:22:44 ID:VF1r2mTH ?##
RJGG 151600Z 19010KT 9999 -RA FEW008 SCT010 BKN015 21/18 Q1008 TEMPO 4500 -RA BR BKN008 BKN015 =
セントレア島 1時 視界良好 小雨 21℃

突然9999(視界良好)になった。この島にはキツネでも住んでるのか(w

326 :名無しSUN:2005/06/16(木) 01:58:59 ID:VF1r2mTH ?##
RJGG 151630Z 19011KT 9999 -RA FEW010 BKN015 21/18 Q1008 NOSIG =
セントレア島 1時半 小雨 21℃

327 :名無しSUN:2005/06/16(木) 02:24:04 ID:VF1r2mTH ?##
RJGG 151700Z 17012KT 9999 FEW008 BKN013 20/18 Q1007 BECMG FEW008 BKN015 =
セントレア島 2時 曇り 20℃

328 :名無しSUN:2005/06/16(木) 03:33:04 ID:VF1r2mTH ?##
RJGG 151800Z 16009KT 4500 -RA BR FEW005 SCT008 BKN010 20/18 Q1008 TEMPO BKN008 BKN015 =
セントレア島 3時 小雨 もや 20℃

もや復活

329 :名無しSUN:2005/06/16(木) 04:23:52 ID:VF1r2mTH ?##
RJGG 151900Z 13009KT 4800 -RA BR FEW004 BKN015 20/18 Q1008 TEMPO BKN008 BKN015 =
セントレア 4時 小雨 もや 20℃

330 :名無しSUN:2005/06/16(木) 12:06:11 ID:pvtbLGYN ?##
RJGG 160230Z 10018KT 9999 -RA FEW007 BKN030 BKN100 20/18 Q1007 NOSIG =
セントレア 11時半 小雨 20度

331 :名無しSUN:2005/06/16(木) 12:16:20 ID:pvtbLGYN ?##
RJGG 160300Z 10014KT 9999 FEW010 SCT050 BKN080 21/18 Q1008 NOSIG =
セントレア 12時 曇り 21度

332 :名無しSUN:2005/06/16(木) 12:19:32 ID:pvtbLGYN ?##
ちなみに名古屋12時 雨 21.2度 84.1%
名古屋とそんなに変わらないね

333 :名無しSUN:2005/06/16(木) 12:55:43 ID:VF1r2mTH ?##
RJGG 160330Z 11013KT 9999 FEW010 SCT020 BKN040 22/18 Q1007 NOSIG =
セントレア 12時半 曇り 22℃

セントレア島って、浮島か埋め立てかどっちなんだろう

334 :名無しSUN:2005/06/16(木) 23:26:06 ID:1yQ6X/yD ?##
RJGG 161330Z 23006KT 9999 FEW008 SCT025 BKN040 20/18 Q1008 NOSIG =

RJGG セントレア
161330Z 10時半
23006KT 南西の風3m
9999 視界良好
FEW008 SCT025 BKN040 曇り
20/18 気温20℃ 湿度90%
Q1008 気圧1008hPa
NOSIG =

335 :名無しSUN:2005/06/16(木) 23:28:18 ID:1yQ6X/yD ?##
RJGG 161400Z 22006KT 9999 FEW008 SCT025 BKN050 20/18 Q1008 NOSIG
セントレア 11時 曇り 20℃

336 :名無しSUN:2005/06/16(木) 23:52:25 ID:1yQ6X/yD ?##
RJGG 161430Z 24009KT 9999 FEW008 SCT025 BKN050 20/18 Q1009 NOSIG
セントレア 11時半 曇り 20℃

337 :名無しSUN:2005/06/17(金) 00:28:17 ID:MlX7CYPl ?##
RJGG 161500Z 20007KT 9999 FEW015 SCT030 BKN050 21/18 Q1008 NOSIG
セントレア 12時 曇り 21℃

338 :名無しSUN:2005/06/17(金) 00:56:01 ID:MlX7CYPl ?##
RJGG 161530Z 20010KT 9999 FEW015 SCT030 BKN050 21/18 Q1008 NOSIG
セントレア 12時半 曇り 21℃

339 :名無しSUN:2005/06/17(金) 01:20:57 ID:MlX7CYPl ?##
RJGG 161600Z 22007KT 9999 FEW015 SCT030 BKN050 21/18 Q1008 NOSIG
セントレア 1時 曇り 21℃

340 :名無しSUN:2005/06/17(金) 02:34:51 ID:3MvOkf9w
>>8

341 :名無しSUN ◆ToNjjhaRSA :2005/06/17(金) 02:36:23 ID:3MvOkf9w
>>8
                                                                                                   

342 :名無しSUN:2005/06/17(金) 09:48:50 ID:UpS5E1No ?##
RJGG 170000Z 20005KT 9999 FEW015 SCT/// 23/19 Q1009 NOSIG =
セントレア島 9時 晴れ時々曇り 23度

名古屋 9時 もや 21.9 81.0

343 :名無しSUN:2005/06/17(金) 10:20:29 ID:UpS5E1No ?##
RJGG 170100Z 19007KT 9999 FEW020 23/18 Q1009 NOSIG =
セントレア島 10時 晴れ 23度

天気イイ

344 :名無しSUN:2005/06/17(金) 10:55:20 ID:UpS5E1No ?##
RJGG 170130Z 20006KT 9999 FEW020 23/18 Q1009 NOSIG =
セントレア 10時半 晴れ 23度

RJTT 170130Z 12007KT 7000 FEW010 SCT020 20/16 Q1009 RMK 1CU010 3SC020 A2981 =
羽田 10時半 晴れ時々曇り 20度 上空300mに積雲(CU)少々 600mに層積雲(SC)かなり

345 :名無しSUN:2005/06/17(金) 11:31:38 ID:UpS5E1No ?##
RJGG 170200Z 19008KT 9999 FEW020 24/19 Q1009 NOSIG =
セントレア 11時 晴れ 24度

RJTT 170200Z 12008KT 5000 BR FEW020 BKN030 21/17 Q1009 RMK 2CU020 7SC030 A2981 =
羽田 11時 もや 21度 上空600mに積雲少々 900mに層積雲たくさん

346 :名無しSUN:2005/06/17(金) 11:47:55 ID:UpS5E1No ?##
RJGG 170230Z 18009KT 9999 FEW020 24/19 Q1008 NOSIG =

RJGG セントレア島
170230Z 11時半
18009KT 南の風4.5m
9999 視界良好
FEW020 晴れ
24/19 気温24度 露点温度19度
Q1008 気圧1008hPa
NOSIG =

347 :名無しSUN:2005/06/17(金) 12:18:54 ID:UpS5E1No ?##
RJGG 170300Z 18010KT 9999 FEW020 25/19 Q1008 NOSIG =
セントレア島 12時 晴れ 25度

名古屋 12時 晴れ 27.1度 60.1%

348 :名無しSUN:2005/06/17(金) 13:10:16 ID:MlX7CYPl ?##
RJGG 170330Z 18014KT 9999 FEW020 SCT/// 24/19 Q1008 NOSIG =
セントレア 12時半 晴れ 24℃

349 :名無しSUN:2005/06/17(金) 13:18:08 ID:MlX7CYPl ?##
RJGG 170400Z 17012KT 9999 FEW020 BKN/// 25/20 Q1008 NOSIG =
セントレア 1時 曇り 25℃

350 :名無しSUN:2005/06/17(金) 14:01:51 ID:UpS5E1No ?##
RJGG 170430Z 17013KT 9999 FEW020 BKN/// 25/20 Q1007 NOSIG =
セントレア 1時半 曇り 25度

351 :名無しSUN:2005/06/17(金) 14:16:17 ID:UpS5E1No ?##
RJGG 170500Z 17012KT 9999 FEW020 BKN/// 25/19 Q1007 NOSIG =
セントレア 2時 曇り 25度

352 :名無しSUN:2005/06/17(金) 14:51:07 ID:UpS5E1No ?##
RJGG 170530Z 17012KT 9999 FEW020 BKN/// 25/20 Q1007 NOSIG =
セントレア 2時半 曇り 25度

353 :名無しSUN:2005/06/17(金) 15:23:16 ID:UpS5E1No ?##
RJGG 170600Z 17011KT 9999 FEW020 BKN/// 26/19 Q1007 NOSIG =
セントレア 3時 曇り 26度

名古屋 3時 曇り 27.1度 57.9%

354 :名無しSUN:2005/06/17(金) 15:42:43 ID:UpS5E1No ?##
RJGG 170630Z 15011KT 9999 FEW020 BKN/// 26/19 Q1007 NOSIG =
セントレア 3時半 曇り 26度

355 :名無しSUN:2005/06/17(金) 16:18:34 ID:UpS5E1No ?##
RJGG 170700Z 15010KT 9999 FEW020 BKN/// 26/19 Q1007 NOSIG =
セントレア 4時 曇り 26度

356 :名無しSUN:2005/06/17(金) 16:44:00 ID:UpS5E1No ?##
RJGG 170730Z 16013KT 9999 FEW030 SCT150 BKN/// 25/19 Q1007 NOSIG =
セントレア 4時半 曇り 25度

357 :名無しSUN:2005/06/17(金) 17:13:31 ID:UpS5E1No ?##
RJGG 170800Z 16011KT 9999 FEW030 BKN120 BKN/// 24/19 Q1007 NOSIG =
セントレア 5時 曇り 24度

358 :名無しSUN:2005/06/17(金) 17:45:50 ID:UpS5E1No ?##
RJGG 170830Z 15009KT 9999 FEW030 SCT120 BKN/// 24/19 Q1007 NOSIG =
セントレア 5時半 曇り 24度

359 :名無しSUN:2005/06/17(金) 18:21:49 ID:UpS5E1No ?##
RJGG 170900Z 14008KT 9999 FEW030 BKN/// 24/19 Q1007 NOSIG =
セントレア 6時 曇り 24度

名古屋 6時 曇り 23.9度 70.9%

360 :名無しSUN:2005/06/17(金) 19:03:48 ID:UpS5E1No ?##
RJGG 170930Z 11006KT 9999 FEW030 BKN/// 24/19 Q1007 NOSIG =
セントレア 6時半 曇り 24度

361 :名無しSUN:2005/06/17(金) 19:18:23 ID:UpS5E1No ?##
RJGG 171000Z 13007KT 9999 FEW030 SCT/// 23/18 Q1007 NOSIG =
セントレア 7時 晴れ時々曇り 23度

362 :名無しSUN:2005/06/17(金) 19:54:37 ID:UpS5E1No ?##
RJGG 171030Z 12010KT 9999 FEW030 BKN/// 23/19 Q1007 NOSIG =
セントレア 7時半 曇り 23度

363 :名無しSUN:2005/06/18(土) 00:19:10 ID:qx4JsGUt ?##
RJGG 171500Z 12007KT 8000 FEW008 SCT015 BKN/// 22/19 Q1007 TEMPO BKN008 =
セントレア 12時 曇り 22℃

RJTT 171500Z 13006KT 9000 FEW012 BKN020 BKN050 21/19 Q1008 RMK 1CU012 5SC020 7SC050 A2977 =
羽田 12時 曇り 21℃ 積雲少し 層積雲たくさん

364 :名無しSUN:2005/06/18(土) 02:20:41 ID:qx4JsGUt ?##
RJGG 171700Z 07005KT 6000 BKN014 22/18 Q1006 NOSIG =
セントレア 2時 曇り 22℃

365 :名無しSUN:2005/06/20(月) 03:05:38 ID:NB8Ke+z+ ?##
RJGG 191730Z 00000KT 9999 FEW010 SCT020 BKN160 21/18 Q1002 NOSIG =
セントレア 2時半 曇り 21℃

00000KT 無風きたー

366 :名無しSUN:2005/06/20(月) 10:57:09 ID:/Wx3sR8S ?##
RJGG 200130Z 20006KT 9999 FEW020 25/18 Q1004 NOSIG =
セントレア 10時半 朝から晴れ! 25度

FEW020・・・600mの高さに雲少し

367 :名無しSUN:2005/06/20(月) 11:58:31 ID:/Wx3sR8S ?##
RJGG 200230Z 19008KT CAVOK 26/19 Q1003 NOSIG =
セントレア 11時半 快晴 26度

CAVOK:気象条件が必要条件を満足する(Cloud And Visibility OK)
       キャブオーケー =快晴。

368 :名無しSUN:2005/06/20(月) 12:25:11 ID:/Wx3sR8S ?##
RJGG 200300Z 17010KT 9999 FEW030 26/19 Q1003 NOSIG =
セントレア島 12時 晴れ 26度

名古屋 12時 晴れ 30.2度 46.0%
名古屋よりずいぶん涼しいね

369 :名無しSUN:2005/06/20(月) 12:51:25 ID:NB8Ke+z+ ?##
RJGG 200330Z 17011KT 9999 FEW030 26/20 Q1003 NOSIG =
セントレア 12時半 晴れ 26℃

RJTT 200330Z 13008KT 9000 FEW020 BKN/// 25/19 Q1002 RMK 1CU020 A2961 =
羽田 12時半 うす曇り 25℃

BKN/// ってばらばらの雲視距離不明という意味らしいけど
空みるとうす曇りって感じだな。
たしかに、高いところにぼやっとした雲が広がってると、
距離感よく分からんね。

370 :名無しSUN:2005/06/21(火) 23:19:17 ID:rSIQoisW ?##
RJGG 211330Z 17003KT 8000 FEW030 SCT060 BKN080 22/19 Q1007 NOSIG =

セントレア 22時半 曇り 22℃

371 :名無しSUN:2005/06/21(火) 23:21:37 ID:rSIQoisW ?##
RJGG 211400Z 15005KT 8000 FEW030 SCT080 BKN140 22/20 Q1007 NOSIG =
セントレア 23時 曇り 22℃

今夜雨降る?

372 :名無しSUN:2005/06/22(水) 00:16:08 ID:H/uSaGbe ?##
RJGG 211500Z 10005KT 080V200 6000 -SHRA FEW010 SCT020 BKN040 22/20 Q1006 TEMPO 4000 -SHRA BR =
セントレア 12時 にわか雨 22℃

おおお雨降ってきた。
-SHRA ・・・「-」弱い 「SH」シャワー 「RA」雨
シャワーと雨とどう違うのか分からんな。SHかRAのどっちかでいいと思うんだが。

373 :名無しSUN:2005/06/22(水) 00:44:27 ID:H/uSaGbe ?##
RJGG 211530Z 12008KT 7000 FEW010 BKN040 BKN060 23/20 Q1006 TEMPO 4000 -SHRA BR =
セントレア 0時半 曇り 23℃

雨やんだか

374 :名無しSUN:2005/06/22(水) 01:20:21 ID:H/uSaGbe ?##
RJGG 211600Z 14007KT 6000 -SHRA FEW010 SCT020 BKN040 23/20 Q1006 TEMPO 4000 -SHRA BR =
セントレア 1時 にわか雨 23℃

また降ってきた

375 :名無しSUN:2005/06/23(木) 23:24:09 ID:Ponn8ok2 ?##
RJGG 231400Z 10003KT 8000 FEW040 BKN/// 22/20 Q1006 NOSIG =
セントレア 11時 うす曇り? 22℃

いまいち/// の意味するところがわからないんだが

376 :名無しSUN:2005/06/25(土) 19:13:36 ID:VAhOdgXc ?##
RJGG 250930Z 14008KT CAVOK 27/20 Q1007 NOSIG =
セントレア 6時半 快晴 27℃

ライブカメラ見つけました。
セントレアではなくて、知多半島中央部らしいが
http://www.kictec.co.jp/lave/applet.htm

377 :名無しSUN:2005/06/25(土) 19:16:32 ID:VAhOdgXc ?##
RJGG 251000Z 13006KT 100V170 CAVOK 27/21 Q1007 NOSIG =
セントレア 7時 快晴 27℃

378 :名無しSUN:2005/06/25(土) 20:04:55 ID:VAhOdgXc ?##
RJGG 251030Z 12005KT 9999 FEW050 26/20 Q1007 NOSIG =
セントレア 7時半 晴れ 26℃

379 :名無しSUN:2005/06/25(土) 20:15:41 ID:VAhOdgXc ?##
RJGG 251100Z 11005KT 9999 FEW050 26/20 Q1007 NOSIG =
セントレア 8時 晴れ 26℃

380 :名無しSUN:2005/06/25(土) 20:56:28 ID:VAhOdgXc ?##
RJGG 251130Z 10006KT CAVOK 26/21 Q1008 NOSIG =
セントレア 8時半 快晴 26℃

381 :名無しSUN:2005/06/25(土) 21:12:24 ID:VAhOdgXc ?##
RJGG 251200Z 10008KT CAVOK 25/22 Q1008 NOSIG =
セントレア 9時 快晴 25℃

382 :名無しSUN:2005/06/25(土) 21:55:21 ID:VAhOdgXc ?##
RJGG 251230Z 10008KT 9999 FEW020 25/22 Q1008 NOSIG =
セントレア 9時半 晴れ 25℃

383 :名無しSUN:2005/06/25(土) 22:32:32 ID:VAhOdgXc ?##
RJGG 251300Z 10008KT 9999 FEW020 SCT060 25/22 Q1008 NOSIG =
セントレア 10時 晴れ時々曇り 25℃

RJTT 251300Z 19011KT CAVOK 25/21 Q1007 RMK A2974 =
羽田 10時 快晴 25℃

384 :名無しSUN:2005/06/25(土) 22:49:21 ID:VAhOdgXc ?##
RJGG 251330Z 11009KT 9999 FEW020 25/22 Q1008 NOSIG =
セントレア 10時半 晴れ 25℃

385 :名無しSUN:2005/06/25(土) 23:25:40 ID:VAhOdgXc ?##
RJGG 251400Z 12010KT 9999 FEW020 24/22 Q1008 NOSIG =
セントレア 11時 晴れ 24℃

386 :名無しSUN:2005/06/25(土) 23:47:16 ID:VAhOdgXc ?##
RJGG 251430Z 11008KT 9999 FEW020 25/22 Q1008 NOSIG =
セントレア 11時半 晴れ 25℃

387 :名無しSUN:2005/06/26(日) 00:14:30 ID:noMWA7gk ?##
RJGG 251500Z 10006KT 9000 FEW020 24/22 Q1009 NOSIG =
セントレア 12時 晴れ 24℃

388 :名無しSUN:2005/06/26(日) 00:57:24 ID:noMWA7gk ?##
RJGG 251530Z 11007KT 8000 FEW020 SCT/// 24/22 Q1008 NOSIG =
セントレア 12時半 晴れ時々曇り 24℃

389 :名無しSUN:2005/06/26(日) 01:26:25 ID:noMWA7gk ?##
RJGG 251600Z 12006KT 6000 FEW020 SCT/// 24/22 Q1008 NOSIG =
セントレア 1時 晴れ時々曇り 24℃

390 :名無しSUN:2005/06/26(日) 01:52:19 ID:noMWA7gk ?##
RJGG 251630Z 11005KT 5000 BR FEW020 BKN/// 24/22 Q1008 BECMG 4000 BR =
セントレア 1時半 もや 24℃

391 :名無しSUN:2005/06/26(日) 02:37:39 ID:noMWA7gk ?##
RJGG 251700Z 13004KT 5000 BR FEW010 BKN/// 24/22 Q1008 BECMG 4000 BR =
セントレア 2時 もや 24℃

392 :名無しSUN:2005/06/26(日) 02:54:51 ID:noMWA7gk ?##
RJGG 251730Z 10003KT 6000 BR FEW010 BKN/// 24/22 Q1009 BECMG 4000 BR =
セントレア 2時半 もや 24℃

393 :名無しSUN:2005/06/26(日) 03:17:20 ID:noMWA7gk ?##
RJGG 251800Z 07001KT 5000 BR FEW010 BKN/// 24/22 Q1009 BECMG 4000 BR =
セントレア 3時 もや 24℃

名古屋 3時 晴れ 24.7℃ 76.1%

394 :名無しSUN:2005/06/26(日) 03:50:28 ID:noMWA7gk ?##
RJGG 251830Z 00000KT 4500 BR FEW010 BKN/// 24/22 Q1009 NOSIG =
セントレア 3時半 もや 24℃

395 :名無しSUN:2005/06/26(日) 04:29:57 ID:noMWA7gk ?##
RJGG 251900Z 15002KT 4200 BR FEW010 BKN/// 24/22 Q1009 NOSIG =
セントレア 4時 もや 24℃

396 :名無しSUN:2005/06/26(日) 04:46:19 ID:noMWA7gk ?##
RJGG 251930Z 20003KT 4000 BR FEW010 BKN/// 24/22 Q1009 NOSIG =
セントレア 4時半 もや 24℃

397 :名無しSUN:2005/06/26(日) 05:25:14 ID:noMWA7gk ?##
RJGG 252000Z 21004KT 2600 BR FEW010 BKN/// 24/22 Q1009 NOSIG =
セントレア 5時 もや 24℃

398 :名無しSUN:2005/06/26(日) 05:45:51 ID:noMWA7gk ?##
RJGG 252030Z 20003KT 2600 BR FEW008 BKN/// 24/22 Q1009 NOSIG =
セントレア 5時半 もや 24℃

399 :名無しSUN:2005/06/26(日) 06:17:52 ID:noMWA7gk ?##
RJGG 252100Z 20006KT 3800 BR FEW008 BKN/// 24/22 Q1009 NOSIG =
セントレア 6時 もや 24℃

名古屋 6時 もや 23.9℃ 78.8%

400 :名無しSUN:2005/06/26(日) 13:28:20 ID:x/x3pN2l ?##
RJGG 260400Z 16007KT 100V170 9999 FEW030 BKN/// 29/21 Q1008 NOSIG =
セントレア 1時 うす曇り 29度

401 :名無しSUN:2005/06/26(日) 17:42:29 ID:noMWA7gk ?##
RJGG 260800Z 17005KT CAVOK 27/22 Q1007 NOSIG =
セントレア 5時 快晴 27℃

CAVOKキャプOK? 雨降らね。もうだめぽ orz
名古屋アワレwwwwwwwww

402 :名無しSUN:2005/06/26(日) 17:47:21 ID:noMWA7gk ?##
RJGG 260830Z 17004KT 120V250 CAVOK 27/23 Q1007 NOSIG =
セントレア 5時半 快晴 27℃

403 :名無しSUN:2005/06/27(月) 21:19:17 ID:MryfPJPG ?##
RJGG 271200Z 17005KT 9999 FEW030 SCT120 BKN/// 27/24 Q1006 NOSIG =
セントレア 9時 曇り 27度

名古屋 9時 曇り 30.2度 54.1%
3度も違うw

404 :名無しSUN:2005/06/27(月) 21:45:26 ID:MryfPJPG ?##
RJGG 271230Z 18004KT 9999 FEW030 BKN/// 28/24 Q1006 NOSIG =
セントレア 9時半 うす曇り 28度

405 :名無しSUN:2005/06/27(月) 22:10:47 ID:MryfPJPG ?##
RJGG 271300Z 24006KT 9999 FEW030 BKN/// 28/23 Q1006 NOSIG =
セントレア 10時 うす曇り 28度

406 :名無しSUN:2005/06/28(火) 01:52:20 ID:3a7KfAUB ?##
RJGG 271630Z 22008KT 9999 FEW030 SCT100 BKN170 27/23 Q1005 NOSIG =
セントレア 1時半 曇り 27℃

407 :名無しSUN:2005/06/28(火) 02:20:48 ID:3a7KfAUB ?##
RJGG 271700Z 22007KT 9999 FEW030 SCT100 BKN/// 27/22 Q1005 NOSIG =
セントレア 2時 曇り 27℃

408 :名無しSUN:2005/06/28(火) 22:07:30 ID:3a7KfAUB ?##
RJGG 281230Z 33008KT 9999 FEW030 SCT040 BKN050 26/23 Q1008 TEMPO 4500 TSRA =
セントレア 9時半 曇り 26℃

TEMPO 4500 TSRA 一時的に視界4500m 雷雨であった

409 :名無しSUN:2005/06/28(火) 22:17:55 ID:3a7KfAUB ?##
RJGG 281300Z 33006KT 9999 FEW040 SCT050 BKN070 26/23 Q1008 TEMPO 4500 TSRA =
セントレア 10時 曇り 26℃

TEMPO 4500 TSRA = 一時的に視界4500m 雷雨であった

410 :名無しSUN:2005/06/28(火) 23:14:30 ID:3a7KfAUB ?##
RJGG 281330Z 32005KT 9999 FEW040 SCT050 BKN/// 26/23 Q1008 NOSIG =
セントレア 10時半 曇り 26℃

雨やんだ

411 :名無しSUN:2005/06/28(火) 23:30:49 ID:3a7KfAUB ?##
RJGG 281400Z 33006KT 9999 FEW030 SCT050 BKN/// 26/23 Q1008 NOSIG =
セントレア 11時 曇り 26℃

412 :名無しSUN:2005/06/30(木) 01:44:28 ID:k4hxommm ?##
RJGG 291600Z VRB01KT 9999 FEW020 SCT050 BKN150 25/23 Q1009 NOSIG =
セントレア 1時 曇り 25℃

VRB01KT 風向定まらず0.5m/s

413 :名無しSUN:2005/07/02(土) 07:11:36 ID:QA4FSdt5 ?##
RJGG 012130Z 27012KT 9999 -SHRA FEW020 BKN080 BKN120 24/20 Q1004 NOSIG =
セントレア 6時半 にわか雨 24℃

414 :名無しSUN:2005/07/02(土) 07:21:37 ID:QA4FSdt5 ?##
RJGG 012200Z 24008KT 9999 FEW020 SCT080 BKN150 24/20 Q1004 BECMG 28008KT =
セントレア 7時 曇り 24℃

415 :名無しSUN:2005/07/02(土) 07:58:55 ID:QA4FSdt5 ?##
RJGG 012230Z 24009KT 9999 FEW020 SCT080 BKN150 24/20 Q1005 BECMG 28008KT =
セントレア 7時半 曇り 24℃

416 :名無しSUN:2005/07/02(土) 14:42:57 ID:QA4FSdt5 ?##
RJGG 020530Z 27008KT 9999 FEW020 BKN050 25/21 Q1004 BECMG 24008KT =
セントレア 2時半 曇り 25℃

417 :名無しSUN:2005/07/02(土) 15:14:49 ID:QA4FSdt5 ?##
RJGG 020600Z 26011KT 9999 FEW020 BKN035 25/21 Q1004 BECMG 24008KT =
セントレア 3時 曇り 25℃

418 :名無しSUN:2005/07/03(日) 06:01:45 ID:EL1ICz9J ?##
RJGG 022030Z 11004KT 4000 BR FEW020 BKN035 BKN090 23/21 Q1004 NOSIG =
セントレア 5時半 もや 23℃

419 :名無しSUN:2005/07/03(日) 06:23:45 ID:EL1ICz9J ?##
RJGG 022100Z 12005KT 5000 BR FEW020 SCT030 BKN040 23/21 Q1004 TEMPO 4000 BR =
セントレア 6時 もや 23℃

420 :名無しSUN:2005/07/03(日) 10:05:12 ID:QzwlA6Kn ?##
RJGG 030030Z 13010KT 7000 FEW010 SCT040 BKN045 24/21 Q1005 NOSIG =
セントレア 9時半 曇り 24度

421 :名無しSUN:2005/07/03(日) 10:16:47 ID:QzwlA6Kn ?##
RJGG 030100Z 15009KT 7000 FEW015 SCT035 BKN040 24/21 Q1005 NOSIG =
セントレア 10時 曇り 24度

422 :名無しSUN:2005/07/04(月) 00:08:29 ID:76OPZCmO ?##
RJGG 031500Z 14014KT 3500 -SHRA BR FEW006 SCT008 BKN010 23/21 Q1001 TEMPO SHRA BR BKN007 =
セントレア 12時 にわか雨 23℃

423 :名無しSUN:2005/07/04(月) 01:00:05 ID:76OPZCmO ?##
RJGG 031530Z 14015KT 2600 SHRA BR FEW003 SCT005 BKN008 23/21 Q1001 NOSIG =
セントレア 12時半 視界2600m 雨 23℃

SHRA・・・本降りって感じ?

424 :名無しSUN:2005/07/04(月) 10:31:50 ID:eh7VO+1h ?##
RJGG 040100Z 13012KT 5000 SHRA BR FEW005 BKN020 BKN030 23/22 Q0998 TEMPO 4000 SHRA BR =
セントレア 10時 雨 23度 998hPa

気圧低い

425 :名無しSUN:2005/07/05(火) 00:38:46 ID:7baJGbUd ?##
RJGG 041500Z 35009KT 5000 -SHRA BR FEW008 BKN020 BKN030 23/22 Q0998 TEMPO 4000 SHRA =
セントレア 12時 にわか雨 23℃

426 :名無しSUN:2005/07/05(火) 00:59:15 ID:7baJGbUd ?##
RJGG 041530Z 36011KT 9999 -SHRA FEW010 SCT030 BKN040 23/21 Q0998 TEMPO SHRA =
セントレア 12時半 にわか雨 23℃

427 :名無しSUN:2005/07/06(水) 03:27:28 ID:2+sm8tiZ ?##
RJGG 051800Z 26005KT 9999 FEW015 BKN090 22/19 Q0998 BECMG 28005KT =
セントレア 3時 曇り 22℃

428 :名無しSUN:2005/07/08(金) 14:23:44 ID:Hh8G/9qj ?##
RJGG 080500Z VRB01KT 9999 FEW030 29/18 Q1008 BECMG 20005KT =
セントレア 2時 晴れ 29度

429 :名無しSUN:2005/07/08(金) 16:38:40 ID:Hh8G/9qj ?##
RJGG 080700Z 18009KT 9999 FEW030 29/21 Q1008 NOSIG =
セントレア 4時 晴れ 29度

RJTT 080700Z 08012KT 9999 FEW030 BKN040 25/19 Q1010 RMK 1CU030 7SC040 A2983 =
羽田 4時 曇り 25度

東京曇ってきた。一雨来るかな

430 :停止しました。。。:停止
真・スレッドストッパー。。。( ̄ー ̄)ニヤリッ

95 KB
■ このスレッドは過去ログ倉庫に格納されています

★スマホ版★ 掲示板に戻る 全部 前100 次100 最新50

read.cgi ver 05.02.02 2014/06/23 Mango Mangüé ★
FOX ★ DSO(Dynamic Shared Object)